<?xml version="1.0" encoding="UTF-8" standalone="no" ?>
<gpx xmlns="http://www.topografix.com/GPX/1/1" xmlns:xsi="http://www.w3.org/2001/XMLSchema-instance" xsi:schemaLocation="http://www.topografix.com/GPX/1/1 http://www.topografix.com/GPX/1/1/gpx.xsd" version="1.1" creator="VisuGPX - https://www.visugpx.com">
  <metadata>
    <name>Cézas - tour Montagne de la Fage</name>
    <desc><![CDATA[2017-03 - Cézas - tour de la Montagne de la Fage

[b]album[/b] : [url]https://goo.gl/photos/Yx87mT7SuQHvFBgi6[/url]
[img]https://2.bp.blogspot.com/-gmjMz_nkARw/WNEQECBNytI/AAAAAAAAQ3Q/C7FiYhf7MOUHQ-jlIYiDzBpZDosiT8VHgCLcB/s1600/2017-03_Cezas_photos_i.JPG[/img]
[b]Idées de randonnées dans la même région[/b]
Parcours : [url]https://www.visugpx.com/membres/24856/montagne/cevennes/[/url]
Photos : [url]https://jcvertygo.blogspot.com/p/cevennes-meridionales.html[/url]]]></desc>
  </metadata>
  <trk>
    <name><![CDATA[Cézas - tour Montagne de la Fage_1]]></name>
    <trkseg>
      <trkpt lat="43.97507" lon="3.77887">
        <ele>610.4</ele>
        <time>2017-03-20T10:49:40Z</time>
      </trkpt>
      <trkpt lat="43.97514" lon="3.77885">
        <ele>610.4</ele>
        <time>2017-03-20T10:49:45Z</time>
      </trkpt>
      <trkpt lat="43.97514" lon="3.77879">
        <ele>610.43717651035</ele>
        <time>2017-03-20T10:49:50Z</time>
      </trkpt>
      <trkpt lat="43.97517" lon="3.77875">
        <ele>610.43717651035</ele>
        <time>2017-03-20T10:49:58Z</time>
      </trkpt>
      <trkpt lat="43.97522" lon="3.77869">
        <ele>613.49378796649</ele>
        <time>2017-03-20T10:50:03Z</time>
      </trkpt>
      <trkpt lat="43.97525" lon="3.77856">
        <ele>616.53722157818</ele>
        <time>2017-03-20T10:50:15Z</time>
      </trkpt>
      <trkpt lat="43.97525" lon="3.77855">
        <ele>616.53722157818</ele>
        <time>2017-03-20T10:50:20Z</time>
      </trkpt>
      <trkpt lat="43.97531" lon="3.77851">
        <ele>616.53722157818</ele>
        <time>2017-03-20T10:50:39Z</time>
      </trkpt>
      <trkpt lat="43.97547" lon="3.77839">
        <ele>619.51391711169</ele>
        <time>2017-03-20T10:51:08Z</time>
      </trkpt>
      <trkpt lat="43.97551" lon="3.77836">
        <ele>619.51391711169</ele>
        <time>2017-03-20T10:51:08Z</time>
      </trkpt>
      <trkpt lat="43.97553" lon="3.77835">
        <ele>619.51391711169</ele>
        <time>2017-03-20T10:51:23Z</time>
      </trkpt>
      <trkpt lat="43.97551" lon="3.7784">
        <ele>622.64579309625</ele>
        <time>2017-03-20T10:51:42Z</time>
      </trkpt>
      <trkpt lat="43.97548" lon="3.77842">
        <ele>622.64579309625</ele>
        <time>2017-03-20T10:51:45Z</time>
      </trkpt>
      <trkpt lat="43.97534" lon="3.7785">
        <ele>625.49253631767</ele>
        <time>2017-03-20T10:51:55Z</time>
      </trkpt>
      <trkpt lat="43.97532" lon="3.77865">
        <ele>628.04288061291</ele>
        <time>2017-03-20T10:52:11Z</time>
      </trkpt>
      <trkpt lat="43.97551" lon="3.77879">
        <ele>630.0875482433</ele>
        <time>2017-03-20T10:52:27Z</time>
      </trkpt>
      <trkpt lat="43.97557" lon="3.77885">
        <ele>630.0875482433</ele>
        <time>2017-03-20T10:52:33Z</time>
      </trkpt>
      <trkpt lat="43.97559" lon="3.77887">
        <ele>631.68504999602</ele>
        <time>2017-03-20T10:52:35Z</time>
      </trkpt>
      <trkpt lat="43.97631" lon="3.7793">
        <ele>632.27508795676</ele>
        <time>2017-03-20T10:54:00Z</time>
      </trkpt>
      <trkpt lat="43.97647" lon="3.77944">
        <ele>632.5950178266</ele>
        <time>2017-03-20T10:54:19Z</time>
      </trkpt>
      <trkpt lat="43.97665" lon="3.77958">
        <ele>632.5113846323</ele>
        <time>2017-03-20T10:54:39Z</time>
      </trkpt>
      <trkpt lat="43.97671" lon="3.77967">
        <ele>632.5113846323</ele>
        <time>2017-03-20T10:54:39Z</time>
      </trkpt>
      <trkpt lat="43.97681" lon="3.7798">
        <ele>632.87406872849</ele>
        <time>2017-03-20T10:55:04Z</time>
      </trkpt>
      <trkpt lat="43.97703" lon="3.78004">
        <ele>633.66510854579</ele>
        <time>2017-03-20T10:55:29Z</time>
      </trkpt>
      <trkpt lat="43.97709" lon="3.78012">
        <ele>633.66510854579</ele>
        <time>2017-03-20T10:55:29Z</time>
      </trkpt>
      <trkpt lat="43.9772" lon="3.78022">
        <ele>634.69437019922</ele>
        <time>2017-03-20T10:55:40Z</time>
      </trkpt>
      <trkpt lat="43.9772" lon="3.78023">
        <ele>634.69437019922</ele>
        <time>2017-03-20T10:55:45Z</time>
      </trkpt>
      <trkpt lat="43.9773" lon="3.78035">
        <ele>634.67778911325</ele>
        <time>2017-03-20T10:57:35Z</time>
      </trkpt>
      <trkpt lat="43.97731" lon="3.78037">
        <ele>634.67778911325</ele>
        <time>2017-03-20T10:57:40Z</time>
      </trkpt>
      <trkpt lat="43.97739" lon="3.78043">
        <ele>634.63377008175</ele>
        <time>2017-03-20T10:57:50Z</time>
      </trkpt>
      <trkpt lat="43.97744" lon="3.78045">
        <ele>634.63377008175</ele>
        <time>2017-03-20T10:57:55Z</time>
      </trkpt>
      <trkpt lat="43.97756" lon="3.78049">
        <ele>634.65489953986</ele>
        <time>2017-03-20T10:58:05Z</time>
      </trkpt>
      <trkpt lat="43.97761" lon="3.78049">
        <ele>634.65489953986</ele>
        <time>2017-03-20T10:58:10Z</time>
      </trkpt>
      <trkpt lat="43.97772" lon="3.78049">
        <ele>634.81696064541</ele>
        <time>2017-03-20T10:58:20Z</time>
      </trkpt>
      <trkpt lat="43.97779" lon="3.78048">
        <ele>634.81696064541</ele>
        <time>2017-03-20T10:58:25Z</time>
      </trkpt>
      <trkpt lat="43.97781" lon="3.78036">
        <ele>635.35330261036</ele>
        <time>2017-03-20T10:58:34Z</time>
      </trkpt>
      <trkpt lat="43.9778" lon="3.78035">
        <ele>635.35330261036</ele>
        <time>2017-03-20T10:58:35Z</time>
      </trkpt>
      <trkpt lat="43.97775" lon="3.78031">
        <ele>635.35330261036</ele>
        <time>2017-03-20T10:58:40Z</time>
      </trkpt>
      <trkpt lat="43.97765" lon="3.78028">
        <ele>636.16789783938</ele>
        <time>2017-03-20T10:58:50Z</time>
      </trkpt>
      <trkpt lat="43.97758" lon="3.78027">
        <ele>636.16789783938</ele>
        <time>2017-03-20T10:58:55Z</time>
      </trkpt>
      <trkpt lat="43.97753" lon="3.78021">
        <ele>637.11227468078</ele>
        <time>2017-03-20T10:59:05Z</time>
      </trkpt>
      <trkpt lat="43.97749" lon="3.78014">
        <ele>637.11227468078</ele>
        <time>2017-03-20T10:59:10Z</time>
      </trkpt>
      <trkpt lat="43.97746" lon="3.78001">
        <ele>638.18969942431</ele>
        <time>2017-03-20T10:59:20Z</time>
      </trkpt>
      <trkpt lat="43.97744" lon="3.77997">
        <ele>638.18969942431</ele>
        <time>2017-03-20T10:59:25Z</time>
      </trkpt>
      <trkpt lat="43.97745" lon="3.77997">
        <ele>638.18969942431</ele>
        <time>2017-03-20T10:59:35Z</time>
      </trkpt>
      <trkpt lat="43.97744" lon="3.77986">
        <ele>639.18000063237</ele>
        <time>2017-03-20T10:59:55Z</time>
      </trkpt>
      <trkpt lat="43.97743" lon="3.77981">
        <ele>639.18000063237</ele>
        <time>2017-03-20T11:00:00Z</time>
      </trkpt>
      <trkpt lat="43.97743" lon="3.77979">
        <ele>639.18000063237</ele>
        <time>2017-03-20T11:00:05Z</time>
      </trkpt>
      <trkpt lat="43.97743" lon="3.77975">
        <ele>639.18000063237</ele>
        <time>2017-03-20T11:00:35Z</time>
      </trkpt>
      <trkpt lat="43.97739" lon="3.7797">
        <ele>639.90382462494</ele>
        <time>2017-03-20T11:00:40Z</time>
      </trkpt>
      <trkpt lat="43.97738" lon="3.77963">
        <ele>639.90382462494</ele>
        <time>2017-03-20T11:00:45Z</time>
      </trkpt>
      <trkpt lat="43.97738" lon="3.77956">
        <ele>640.44682728189</ele>
        <time>2017-03-20T11:00:50Z</time>
      </trkpt>
      <trkpt lat="43.97739" lon="3.77949">
        <ele>640.44682728189</ele>
        <time>2017-03-20T11:00:55Z</time>
      </trkpt>
      <trkpt lat="43.97736" lon="3.77943">
        <ele>640.85517237703</ele>
        <time>2017-03-20T11:01:00Z</time>
      </trkpt>
      <trkpt lat="43.97734" lon="3.77938">
        <ele>640.85517237703</ele>
        <time>2017-03-20T11:01:05Z</time>
      </trkpt>
      <trkpt lat="43.97734" lon="3.77929">
        <ele>641.18307328205</ele>
        <time>2017-03-20T11:01:10Z</time>
      </trkpt>
      <trkpt lat="43.97732" lon="3.77921">
        <ele>641.18307328205</ele>
        <time>2017-03-20T11:01:15Z</time>
      </trkpt>
      <trkpt lat="43.9773" lon="3.77915">
        <ele>641.43642562162</ele>
        <time>2017-03-20T11:01:20Z</time>
      </trkpt>
      <trkpt lat="43.97729" lon="3.77909">
        <ele>641.43642562162</ele>
        <time>2017-03-20T11:01:25Z</time>
      </trkpt>
      <trkpt lat="43.97729" lon="3.77901">
        <ele>641.67588265979</ele>
        <time>2017-03-20T11:01:30Z</time>
      </trkpt>
      <trkpt lat="43.97744" lon="3.77884">
        <ele>641.9011120164</ele>
        <time>2017-03-20T11:01:56Z</time>
      </trkpt>
      <trkpt lat="43.97759" lon="3.77902">
        <ele>642.30635322658</ele>
        <time>2017-03-20T11:02:05Z</time>
      </trkpt>
      <trkpt lat="43.97761" lon="3.77907">
        <ele>642.30635322658</ele>
        <time>2017-03-20T11:02:10Z</time>
      </trkpt>
      <trkpt lat="43.97763" lon="3.77914">
        <ele>642.86393529166</ele>
        <time>2017-03-20T11:02:15Z</time>
      </trkpt>
      <trkpt lat="43.97768" lon="3.77921">
        <ele>642.86393529166</ele>
        <time>2017-03-20T11:02:20Z</time>
      </trkpt>
      <trkpt lat="43.97773" lon="3.77925">
        <ele>643.53536036901</ele>
        <time>2017-03-20T11:02:25Z</time>
      </trkpt>
      <trkpt lat="43.97777" lon="3.77931">
        <ele>643.53536036901</ele>
        <time>2017-03-20T11:02:30Z</time>
      </trkpt>
      <trkpt lat="43.9778" lon="3.77936">
        <ele>644.22969729294</ele>
        <time>2017-03-20T11:02:35Z</time>
      </trkpt>
      <trkpt lat="43.97783" lon="3.77939">
        <ele>644.22969729294</ele>
        <time>2017-03-20T11:02:40Z</time>
      </trkpt>
      <trkpt lat="43.97786" lon="3.77943">
        <ele>644.22969729294</ele>
        <time>2017-03-20T11:02:45Z</time>
      </trkpt>
      <trkpt lat="43.97789" lon="3.77949">
        <ele>644.97417873708</ele>
        <time>2017-03-20T11:02:50Z</time>
      </trkpt>
      <trkpt lat="43.97793" lon="3.77954">
        <ele>644.97417873708</ele>
        <time>2017-03-20T11:02:55Z</time>
      </trkpt>
      <trkpt lat="43.97796" lon="3.77959">
        <ele>645.58356965032</ele>
        <time>2017-03-20T11:03:00Z</time>
      </trkpt>
      <trkpt lat="43.97801" lon="3.77965">
        <ele>645.58356965032</ele>
        <time>2017-03-20T11:03:05Z</time>
      </trkpt>
      <trkpt lat="43.97807" lon="3.7797">
        <ele>646.1382094544</ele>
        <time>2017-03-20T11:03:10Z</time>
      </trkpt>
      <trkpt lat="43.97813" lon="3.77973">
        <ele>646.1382094544</ele>
        <time>2017-03-20T11:03:15Z</time>
      </trkpt>
      <trkpt lat="43.97819" lon="3.77976">
        <ele>646.54344198208</ele>
        <time>2017-03-20T11:03:20Z</time>
      </trkpt>
      <trkpt lat="43.97823" lon="3.77978">
        <ele>646.54344198208</ele>
        <time>2017-03-20T11:03:25Z</time>
      </trkpt>
      <trkpt lat="43.97827" lon="3.77981">
        <ele>646.81063829378</ele>
        <time>2017-03-20T11:03:30Z</time>
      </trkpt>
      <trkpt lat="43.97833" lon="3.77982">
        <ele>646.81063829378</ele>
        <time>2017-03-20T11:03:35Z</time>
      </trkpt>
      <trkpt lat="43.97838" lon="3.77979">
        <ele>647.13949288045</ele>
        <time>2017-03-20T11:03:40Z</time>
      </trkpt>
      <trkpt lat="43.97842" lon="3.77977">
        <ele>647.13949288045</ele>
        <time>2017-03-20T11:03:45Z</time>
      </trkpt>
      <trkpt lat="43.97846" lon="3.77973">
        <ele>647.13949288045</ele>
        <time>2017-03-20T11:03:50Z</time>
      </trkpt>
      <trkpt lat="43.9785" lon="3.77971">
        <ele>647.3699964284</ele>
        <time>2017-03-20T11:03:55Z</time>
      </trkpt>
      <trkpt lat="43.9785" lon="3.77966">
        <ele>647.3699964284</ele>
        <time>2017-03-20T11:04:00Z</time>
      </trkpt>
      <trkpt lat="43.97849" lon="3.77965">
        <ele>647.3699964284</ele>
        <time>2017-03-20T11:04:05Z</time>
      </trkpt>
      <trkpt lat="43.97856" lon="3.77968">
        <ele>648.62657610725</ele>
        <time>2017-03-20T11:05:57Z</time>
      </trkpt>
      <trkpt lat="43.97856" lon="3.77968">
        <ele>648.62657610725</ele>
        <time>2017-03-20T11:06:00Z</time>
      </trkpt>
      <trkpt lat="43.97845" lon="3.77968">
        <ele>649.35826392243</ele>
        <time>2017-03-20T11:09:16Z</time>
      </trkpt>
      <trkpt lat="43.97854" lon="3.77967">
        <ele>649.5546607478</ele>
        <time>2017-03-20T11:10:52Z</time>
      </trkpt>
      <trkpt lat="43.97855" lon="3.77967">
        <ele>649.5546607478</ele>
        <time>2017-03-20T11:10:55Z</time>
      </trkpt>
      <trkpt lat="43.97857" lon="3.77964">
        <ele>649.5546607478</ele>
        <time>2017-03-20T11:11:03Z</time>
      </trkpt>
      <trkpt lat="43.97858" lon="3.77964">
        <ele>649.5546607478</ele>
        <time>2017-03-20T11:11:05Z</time>
      </trkpt>
      <trkpt lat="43.97862" lon="3.77961">
        <ele>649.5546607478</ele>
        <time>2017-03-20T11:11:10Z</time>
      </trkpt>
      <trkpt lat="43.97864" lon="3.77956">
        <ele>649.86477144021</ele>
        <time>2017-03-20T11:11:29Z</time>
      </trkpt>
      <trkpt lat="43.9787" lon="3.77947">
        <ele>649.86477144021</ele>
        <time>2017-03-20T11:11:30Z</time>
      </trkpt>
      <trkpt lat="43.97892" lon="3.77898">
        <ele>650.47945009194</ele>
        <time>2017-03-20T11:12:15Z</time>
      </trkpt>
      <trkpt lat="43.97897" lon="3.77893">
        <ele>650.47945009194</ele>
        <time>2017-03-20T11:12:15Z</time>
      </trkpt>
      <trkpt lat="43.9791" lon="3.77884">
        <ele>651.26043144377</ele>
        <time>2017-03-20T11:12:42Z</time>
      </trkpt>
      <trkpt lat="43.97914" lon="3.77884">
        <ele>651.26043144377</ele>
        <time>2017-03-20T11:12:42Z</time>
      </trkpt>
      <trkpt lat="43.97922" lon="3.77884">
        <ele>652.10725377792</ele>
        <time>2017-03-20T11:12:53Z</time>
      </trkpt>
      <trkpt lat="43.97927" lon="3.77883">
        <ele>652.10725377792</ele>
        <time>2017-03-20T11:12:53Z</time>
      </trkpt>
      <trkpt lat="43.97963" lon="3.77895">
        <ele>653.36276633559</ele>
        <time>2017-03-20T11:13:34Z</time>
      </trkpt>
      <trkpt lat="43.9799" lon="3.77906">
        <ele>655.05658043285</ele>
        <time>2017-03-20T11:13:56Z</time>
      </trkpt>
      <trkpt lat="43.98056" lon="3.77934">
        <ele>657.57594112188</ele>
        <time>2017-03-20T11:14:55Z</time>
      </trkpt>
      <trkpt lat="43.98071" lon="3.77935">
        <ele>659.99154670863</ele>
        <time>2017-03-20T11:15:07Z</time>
      </trkpt>
      <trkpt lat="43.98076" lon="3.77932">
        <ele>659.99154670863</ele>
        <time>2017-03-20T11:15:07Z</time>
      </trkpt>
      <trkpt lat="43.98079" lon="3.7793">
        <ele>659.99154670863</ele>
        <time>2017-03-20T11:15:10Z</time>
      </trkpt>
      <trkpt lat="43.98104" lon="3.77918">
        <ele>662.6229969211</ele>
        <time>2017-03-20T11:15:35Z</time>
      </trkpt>
      <trkpt lat="43.9814" lon="3.77894">
        <ele>665.52292784914</ele>
        <time>2017-03-20T11:16:47Z</time>
      </trkpt>
      <trkpt lat="43.98163" lon="3.77876">
        <ele>668.15179883694</ele>
        <time>2017-03-20T11:16:47Z</time>
      </trkpt>
      <trkpt lat="43.98186" lon="3.77864">
        <ele>670.49623891261</ele>
        <time>2017-03-20T11:17:16Z</time>
      </trkpt>
      <trkpt lat="43.98197" lon="3.77858">
        <ele>672.3954517887</ele>
        <time>2017-03-20T11:17:21Z</time>
      </trkpt>
      <trkpt lat="43.98229" lon="3.77843">
        <ele>674.09297358831</ele>
        <time>2017-03-20T11:17:45Z</time>
      </trkpt>
      <trkpt lat="43.98286" lon="3.77816">
        <ele>675.2006989867</ele>
        <time>2017-03-20T11:18:44Z</time>
      </trkpt>
      <trkpt lat="43.98296" lon="3.77813">
        <ele>676.08003468953</ele>
        <time>2017-03-20T11:18:44Z</time>
      </trkpt>
      <trkpt lat="43.98325" lon="3.77805">
        <ele>676.79526322938</ele>
        <time>2017-03-20T11:19:10Z</time>
      </trkpt>
      <trkpt lat="43.98349" lon="3.77799">
        <ele>677.89475116043</ele>
        <time>2017-03-20T11:19:43Z</time>
      </trkpt>
      <trkpt lat="43.98363" lon="3.77797">
        <ele>679.08139174975</ele>
        <time>2017-03-20T11:19:43Z</time>
      </trkpt>
      <trkpt lat="43.984" lon="3.77787">
        <ele>680.00904165731</ele>
        <time>2017-03-20T11:20:17Z</time>
      </trkpt>
      <trkpt lat="43.98403" lon="3.77784">
        <ele>680.00904165731</ele>
        <time>2017-03-20T11:20:17Z</time>
      </trkpt>
      <trkpt lat="43.98444" lon="3.77778">
        <ele>681.46451396582</ele>
        <time>2017-03-20T11:20:49Z</time>
      </trkpt>
      <trkpt lat="43.98458" lon="3.77774">
        <ele>683.05238310591</ele>
        <time>2017-03-20T11:21:00Z</time>
      </trkpt>
      <trkpt lat="43.98463" lon="3.77773">
        <ele>683.05238310591</ele>
        <time>2017-03-20T11:21:05Z</time>
      </trkpt>
      <trkpt lat="43.98465" lon="3.77772">
        <ele>683.05238310591</ele>
        <time>2017-03-20T11:21:10Z</time>
      </trkpt>
      <trkpt lat="43.98469" lon="3.77769">
        <ele>684.17527230138</ele>
        <time>2017-03-20T11:21:15Z</time>
      </trkpt>
      <trkpt lat="43.98493" lon="3.77775">
        <ele>685.19219358751</ele>
        <time>2017-03-20T11:21:49Z</time>
      </trkpt>
      <trkpt lat="43.98547" lon="3.77788">
        <ele>686.69575536592</ele>
        <time>2017-03-20T11:22:34Z</time>
      </trkpt>
      <trkpt lat="43.98582" lon="3.77789">
        <ele>688.47220788903</ele>
        <time>2017-03-20T11:23:05Z</time>
      </trkpt>
      <trkpt lat="43.98586" lon="3.77791">
        <ele>688.47220788903</ele>
        <time>2017-03-20T11:23:13Z</time>
      </trkpt>
      <trkpt lat="43.98602" lon="3.77788">
        <ele>690.26623109237</ele>
        <time>2017-03-20T11:23:30Z</time>
      </trkpt>
      <trkpt lat="43.98615" lon="3.77786">
        <ele>691.9299419109</ele>
        <time>2017-03-20T11:23:30Z</time>
      </trkpt>
      <trkpt lat="43.98647" lon="3.77776">
        <ele>693.71902090174</ele>
        <time>2017-03-20T11:23:55Z</time>
      </trkpt>
      <trkpt lat="43.98653" lon="3.77773">
        <ele>693.71902090174</ele>
        <time>2017-03-20T11:23:56Z</time>
      </trkpt>
      <trkpt lat="43.98667" lon="3.77765">
        <ele>695.81090040058</ele>
        <time>2017-03-20T11:24:16Z</time>
      </trkpt>
      <trkpt lat="43.98719" lon="3.77768">
        <ele>698.31067641386</ele>
        <time>2017-03-20T11:25:12Z</time>
      </trkpt>
      <trkpt lat="43.98745" lon="3.77791">
        <ele>701.02521736085</ele>
        <time>2017-03-20T11:25:41Z</time>
      </trkpt>
      <trkpt lat="43.98748" lon="3.77795">
        <ele>701.02521736085</ele>
        <time>2017-03-20T11:25:41Z</time>
      </trkpt>
      <trkpt lat="43.98765" lon="3.77809">
        <ele>703.71792491383</ele>
        <time>2017-03-20T11:26:01Z</time>
      </trkpt>
      <trkpt lat="43.98786" lon="3.77815">
        <ele>706.30026703026</ele>
        <time>2017-03-20T11:26:16Z</time>
      </trkpt>
      <trkpt lat="43.98792" lon="3.77818">
        <ele>706.30026703026</ele>
        <time>2017-03-20T11:26:19Z</time>
      </trkpt>
      <trkpt lat="43.98817" lon="3.77835">
        <ele>709.05157812347</ele>
        <time>2017-03-20T11:26:57Z</time>
      </trkpt>
      <trkpt lat="43.98818" lon="3.77839">
        <ele>709.05157812347</ele>
        <time>2017-03-20T11:26:57Z</time>
      </trkpt>
      <trkpt lat="43.98812" lon="3.77843">
        <ele>711.7247172489</ele>
        <time>2017-03-20T11:27:05Z</time>
      </trkpt>
      <trkpt lat="43.98772" lon="3.77879">
        <ele>714.14899562912</ele>
        <time>2017-03-20T11:27:47Z</time>
      </trkpt>
      <trkpt lat="43.9877" lon="3.77881">
        <ele>714.14899562912</ele>
        <time>2017-03-20T11:27:48Z</time>
      </trkpt>
      <trkpt lat="43.98758" lon="3.77893">
        <ele>716.25365559493</ele>
        <time>2017-03-20T11:28:00Z</time>
      </trkpt>
      <trkpt lat="43.98715" lon="3.77935">
        <ele>718.49318832031</ele>
        <time>2017-03-20T11:28:49Z</time>
      </trkpt>
      <trkpt lat="43.9868" lon="3.77976">
        <ele>720.58160291587</ele>
        <time>2017-03-20T11:29:33Z</time>
      </trkpt>
      <trkpt lat="43.98674" lon="3.77985">
        <ele>720.58160291587</ele>
        <time>2017-03-20T11:29:33Z</time>
      </trkpt>
      <trkpt lat="43.98644" lon="3.78023">
        <ele>722.71588105701</ele>
        <time>2017-03-20T11:30:01Z</time>
      </trkpt>
      <trkpt lat="43.98615" lon="3.78062">
        <ele>724.55939679698</ele>
        <time>2017-03-20T11:30:35Z</time>
      </trkpt>
      <trkpt lat="43.98593" lon="3.78094">
        <ele>726.19042852305</ele>
        <time>2017-03-20T11:31:02Z</time>
      </trkpt>
      <trkpt lat="43.98544" lon="3.78134">
        <ele>727.46587880526</ele>
        <time>2017-03-20T11:31:48Z</time>
      </trkpt>
      <trkpt lat="43.98527" lon="3.78146">
        <ele>728.51373723209</ele>
        <time>2017-03-20T11:32:05Z</time>
      </trkpt>
      <trkpt lat="43.98496" lon="3.78164">
        <ele>729.74168695499</ele>
        <time>2017-03-20T11:32:41Z</time>
      </trkpt>
      <trkpt lat="43.98491" lon="3.7817">
        <ele>729.74168695499</ele>
        <time>2017-03-20T11:32:41Z</time>
      </trkpt>
      <trkpt lat="43.9847" lon="3.78187">
        <ele>731.00794196612</ele>
        <time>2017-03-20T11:33:00Z</time>
      </trkpt>
      <trkpt lat="43.98468" lon="3.78189">
        <ele>731.00794196612</ele>
        <time>2017-03-20T11:33:00Z</time>
      </trkpt>
      <trkpt lat="43.98441" lon="3.78228">
        <ele>732.35410453137</ele>
        <time>2017-03-20T11:33:37Z</time>
      </trkpt>
      <trkpt lat="43.98437" lon="3.78236">
        <ele>732.35410453137</ele>
        <time>2017-03-20T11:33:43Z</time>
      </trkpt>
      <trkpt lat="43.98407" lon="3.7829">
        <ele>733.65989956049</ele>
        <time>2017-03-20T11:34:33Z</time>
      </trkpt>
      <trkpt lat="43.98401" lon="3.78301">
        <ele>734.75632577818</ele>
        <time>2017-03-20T11:34:33Z</time>
      </trkpt>
      <trkpt lat="43.98381" lon="3.78347">
        <ele>735.18450690884</ele>
        <time>2017-03-20T11:35:01Z</time>
      </trkpt>
      <trkpt lat="43.98377" lon="3.78355">
        <ele>735.18450690884</ele>
        <time>2017-03-20T11:35:05Z</time>
      </trkpt>
      <trkpt lat="43.98363" lon="3.78374">
        <ele>735.25675973919</ele>
        <time>2017-03-20T11:35:19Z</time>
      </trkpt>
      <trkpt lat="43.98362" lon="3.78375">
        <ele>735.25675973919</ele>
        <time>2017-03-20T11:35:20Z</time>
      </trkpt>
      <trkpt lat="43.98349" lon="3.78393">
        <ele>735.06155633267</ele>
        <time>2017-03-20T11:35:44Z</time>
      </trkpt>
      <trkpt lat="43.98343" lon="3.78403">
        <ele>734.81144011795</ele>
        <time>2017-03-20T11:35:44Z</time>
      </trkpt>
      <trkpt lat="43.9833" lon="3.78424">
        <ele>734.24188564289</ele>
        <time>2017-03-20T11:36:00Z</time>
      </trkpt>
      <trkpt lat="43.98318" lon="3.78443">
        <ele>733.32503882323</ele>
        <time>2017-03-20T11:36:31Z</time>
      </trkpt>
      <trkpt lat="43.98293" lon="3.78482">
        <ele>730.11760288767</ele>
        <time>2017-03-20T11:37:46Z</time>
      </trkpt>
      <trkpt lat="43.98289" lon="3.78494">
        <ele>726.61913071246</ele>
        <time>2017-03-20T11:38:35Z</time>
      </trkpt>
      <trkpt lat="43.9828" lon="3.78507">
        <ele>723.26923257559</ele>
        <time>2017-03-20T11:39:00Z</time>
      </trkpt>
      <trkpt lat="43.98275" lon="3.78514">
        <ele>723.26923257559</ele>
        <time>2017-03-20T11:39:10Z</time>
      </trkpt>
      <trkpt lat="43.98267" lon="3.78519">
        <ele>720.21496608825</ele>
        <time>2017-03-20T11:40:16Z</time>
      </trkpt>
      <trkpt lat="43.98264" lon="3.78524">
        <ele>720.21496608825</ele>
        <time>2017-03-20T11:40:16Z</time>
      </trkpt>
      <trkpt lat="43.98258" lon="3.78535">
        <ele>717.1588677748</ele>
        <time>2017-03-20T11:40:51Z</time>
      </trkpt>
      <trkpt lat="43.98253" lon="3.78556">
        <ele>714.27225164957</ele>
        <time>2017-03-20T11:40:52Z</time>
      </trkpt>
      <trkpt lat="43.98253" lon="3.78558">
        <ele>714.27225164957</ele>
        <time>2017-03-20T11:40:52Z</time>
      </trkpt>
      <trkpt lat="43.98246" lon="3.78579">
        <ele>711.46794753366</ele>
        <time>2017-03-20T11:41:17Z</time>
      </trkpt>
      <trkpt lat="43.98241" lon="3.78587">
        <ele>711.46794753366</ele>
        <time>2017-03-20T11:41:17Z</time>
      </trkpt>
      <trkpt lat="43.9823" lon="3.78662">
        <ele>708.11675682433</ele>
        <time>2017-03-20T11:42:09Z</time>
      </trkpt>
      <trkpt lat="43.98257" lon="3.78706">
        <ele>704.35808849065</ele>
        <time>2017-03-20T11:42:42Z</time>
      </trkpt>
      <trkpt lat="43.98273" lon="3.78722">
        <ele>700.71125015944</ele>
        <time>2017-03-20T11:43:00Z</time>
      </trkpt>
      <trkpt lat="43.98291" lon="3.78734">
        <ele>697.38273468506</ele>
        <time>2017-03-20T11:43:16Z</time>
      </trkpt>
      <trkpt lat="43.98299" lon="3.78736">
        <ele>697.38273468506</ele>
        <time>2017-03-20T11:43:20Z</time>
      </trkpt>
      <trkpt lat="43.98346" lon="3.78735">
        <ele>693.16413536953</ele>
        <time>2017-03-20T11:44:00Z</time>
      </trkpt>
      <trkpt lat="43.98368" lon="3.78724">
        <ele>689.08630568829</ele>
        <time>2017-03-20T11:44:28Z</time>
      </trkpt>
      <trkpt lat="43.98377" lon="3.78716">
        <ele>684.90691048522</ele>
        <time>2017-03-20T11:44:37Z</time>
      </trkpt>
      <trkpt lat="43.98441" lon="3.78682">
        <ele>680.61762215418</ele>
        <time>2017-03-20T11:45:35Z</time>
      </trkpt>
      <trkpt lat="43.98466" lon="3.7867">
        <ele>676.54220824502</ele>
        <time>2017-03-20T11:46:07Z</time>
      </trkpt>
      <trkpt lat="43.98479" lon="3.78673">
        <ele>672.95080184996</ele>
        <time>2017-03-20T11:46:23Z</time>
      </trkpt>
      <trkpt lat="43.98519" lon="3.78662">
        <ele>669.44330323196</ele>
        <time>2017-03-20T11:46:57Z</time>
      </trkpt>
      <trkpt lat="43.9852" lon="3.78663">
        <ele>669.44330323196</ele>
        <time>2017-03-20T11:46:58Z</time>
      </trkpt>
      <trkpt lat="43.98542" lon="3.78662">
        <ele>666.26821263851</ele>
        <time>2017-03-20T11:47:18Z</time>
      </trkpt>
      <trkpt lat="43.98545" lon="3.78662">
        <ele>666.26821263851</ele>
        <time>2017-03-20T11:47:20Z</time>
      </trkpt>
      <trkpt lat="43.98562" lon="3.78672">
        <ele>663.3661777655</ele>
        <time>2017-03-20T11:47:39Z</time>
      </trkpt>
      <trkpt lat="43.98577" lon="3.78671">
        <ele>660.70989730934</ele>
        <time>2017-03-20T11:48:00Z</time>
      </trkpt>
      <trkpt lat="43.98585" lon="3.78676">
        <ele>660.70989730934</ele>
        <time>2017-03-20T11:48:00Z</time>
      </trkpt>
      <trkpt lat="43.98592" lon="3.78681">
        <ele>658.24419556444</ele>
        <time>2017-03-20T11:48:08Z</time>
      </trkpt>
      <trkpt lat="43.98613" lon="3.78685">
        <ele>656.01794402048</ele>
        <time>2017-03-20T11:48:33Z</time>
      </trkpt>
      <trkpt lat="43.9862" lon="3.78687">
        <ele>656.01794402048</ele>
        <time>2017-03-20T11:48:33Z</time>
      </trkpt>
      <trkpt lat="43.9863" lon="3.78688">
        <ele>654.24834367042</ele>
        <time>2017-03-20T11:48:46Z</time>
      </trkpt>
      <trkpt lat="43.98633" lon="3.78689">
        <ele>654.24834367042</ele>
        <time>2017-03-20T11:48:46Z</time>
      </trkpt>
      <trkpt lat="43.98639" lon="3.78736">
        <ele>653.75471989229</ele>
        <time>2017-03-20T11:49:35Z</time>
      </trkpt>
      <trkpt lat="43.98633" lon="3.78765">
        <ele>653.80790465286</ele>
        <time>2017-03-20T11:49:55Z</time>
      </trkpt>
      <trkpt lat="43.9863" lon="3.78784">
        <ele>654.119610831</ele>
        <time>2017-03-20T11:50:15Z</time>
      </trkpt>
      <trkpt lat="43.9863" lon="3.78793">
        <ele>654.119610831</ele>
        <time>2017-03-20T11:50:15Z</time>
      </trkpt>
      <trkpt lat="43.98626" lon="3.78818">
        <ele>655.15673239792</ele>
        <time>2017-03-20T11:50:42Z</time>
      </trkpt>
      <trkpt lat="43.98625" lon="3.78846">
        <ele>656.52815392004</ele>
        <time>2017-03-20T11:50:58Z</time>
      </trkpt>
      <trkpt lat="43.98622" lon="3.78857">
        <ele>656.52815392004</ele>
        <time>2017-03-20T11:50:58Z</time>
      </trkpt>
      <trkpt lat="43.98619" lon="3.78877">
        <ele>658.14418280428</ele>
        <time>2017-03-20T11:51:14Z</time>
      </trkpt>
      <trkpt lat="43.98618" lon="3.78879">
        <ele>658.14418280428</ele>
        <time>2017-03-20T11:51:15Z</time>
      </trkpt>
      <trkpt lat="43.98617" lon="3.78896">
        <ele>659.87764079712</ele>
        <time>2017-03-20T11:51:23Z</time>
      </trkpt>
      <trkpt lat="43.98616" lon="3.78909">
        <ele>661.75435626633</ele>
        <time>2017-03-20T11:51:32Z</time>
      </trkpt>
      <trkpt lat="43.98615" lon="3.78913">
        <ele>661.75435626633</ele>
        <time>2017-03-20T11:51:35Z</time>
      </trkpt>
      <trkpt lat="43.98616" lon="3.78922">
        <ele>663.68248420501</ele>
        <time>2017-03-20T11:51:40Z</time>
      </trkpt>
      <trkpt lat="43.98621" lon="3.78946">
        <ele>665.90819183457</ele>
        <time>2017-03-20T11:52:00Z</time>
      </trkpt>
      <trkpt lat="43.98639" lon="3.79003">
        <ele>668.39930980112</ele>
        <time>2017-03-20T11:52:38Z</time>
      </trkpt>
      <trkpt lat="43.98667" lon="3.79059">
        <ele>671.15412667658</ele>
        <time>2017-03-20T11:53:24Z</time>
      </trkpt>
      <trkpt lat="43.98668" lon="3.7906">
        <ele>671.15412667658</ele>
        <time>2017-03-20T11:53:27Z</time>
      </trkpt>
      <trkpt lat="43.987" lon="3.79083">
        <ele>674.28565688142</ele>
        <time>2017-03-20T11:54:05Z</time>
      </trkpt>
      <trkpt lat="43.98704" lon="3.79084">
        <ele>674.28565688142</ele>
        <time>2017-03-20T11:54:07Z</time>
      </trkpt>
      <trkpt lat="43.9879" lon="3.79035">
        <ele>678.86320189504</ele>
        <time>2017-03-20T11:55:41Z</time>
      </trkpt>
      <trkpt lat="43.98791" lon="3.79036">
        <ele>678.86320189504</ele>
        <time>2017-03-20T11:56:00Z</time>
      </trkpt>
      <trkpt lat="43.98828" lon="3.79012">
        <ele>684.41802989159</ele>
        <time>2017-03-20T11:56:25Z</time>
      </trkpt>
      <trkpt lat="43.98836" lon="3.79006">
        <ele>692.55968253438</ele>
        <time>2017-03-20T11:56:40Z</time>
      </trkpt>
      <trkpt lat="43.98838" lon="3.79002">
        <ele>692.55968253438</ele>
        <time>2017-03-20T11:57:00Z</time>
      </trkpt>
      <trkpt lat="43.98841" lon="3.79">
        <ele>692.55968253438</ele>
        <time>2017-03-20T11:57:05Z</time>
      </trkpt>
      <trkpt lat="43.98853" lon="3.78995">
        <ele>701.24162247265</ele>
        <time>2017-03-20T11:57:21Z</time>
      </trkpt>
      <trkpt lat="43.98882" lon="3.78994">
        <ele>709.41666996284</ele>
        <time>2017-03-20T11:58:00Z</time>
      </trkpt>
      <trkpt lat="43.98909" lon="3.7898">
        <ele>717.34128862534</ele>
        <time>2017-03-20T11:58:35Z</time>
      </trkpt>
      <trkpt lat="43.98915" lon="3.78982">
        <ele>717.34128862534</ele>
        <time>2017-03-20T11:58:35Z</time>
      </trkpt>
      <trkpt lat="43.98968" lon="3.7897">
        <ele>725.47035496453</ele>
        <time>2017-03-20T11:59:36Z</time>
      </trkpt>
      <trkpt lat="43.98978" lon="3.78967">
        <ele>733.07226267527</ele>
        <time>2017-03-20T11:59:47Z</time>
      </trkpt>
      <trkpt lat="43.98981" lon="3.78967">
        <ele>733.07226267527</ele>
        <time>2017-03-20T11:59:50Z</time>
      </trkpt>
      <trkpt lat="43.99002" lon="3.7896">
        <ele>740.36460556459</ele>
        <time>2017-03-20T12:00:08Z</time>
      </trkpt>
      <trkpt lat="43.99025" lon="3.78962">
        <ele>747.59359513403</ele>
        <time>2017-03-20T12:00:35Z</time>
      </trkpt>
      <trkpt lat="43.99046" lon="3.78961">
        <ele>754.67100854645</ele>
        <time>2017-03-20T12:01:01Z</time>
      </trkpt>
      <trkpt lat="43.99054" lon="3.78959">
        <ele>754.67100854645</ele>
        <time>2017-03-20T12:01:17Z</time>
      </trkpt>
      <trkpt lat="43.99064" lon="3.78952">
        <ele>761.42961044163</ele>
        <time>2017-03-20T12:01:17Z</time>
      </trkpt>
      <trkpt lat="43.99071" lon="3.78951">
        <ele>761.42961044163</ele>
        <time>2017-03-20T12:01:31Z</time>
      </trkpt>
      <trkpt lat="43.99077" lon="3.78952">
        <ele>767.5573862247</ele>
        <time>2017-03-20T12:01:32Z</time>
      </trkpt>
      <trkpt lat="43.99088" lon="3.78953">
        <ele>773.2575794938</ele>
        <time>2017-03-20T12:01:44Z</time>
      </trkpt>
      <trkpt lat="43.99093" lon="3.78955">
        <ele>773.2575794938</ele>
        <time>2017-03-20T12:01:51Z</time>
      </trkpt>
      <trkpt lat="43.99117" lon="3.78961">
        <ele>779.0805711511</ele>
        <time>2017-03-20T12:02:19Z</time>
      </trkpt>
      <trkpt lat="43.99137" lon="3.78954">
        <ele>784.58539533077</ele>
        <time>2017-03-20T12:02:49Z</time>
      </trkpt>
      <trkpt lat="43.99146" lon="3.7895">
        <ele>784.58539533077</ele>
        <time>2017-03-20T12:02:49Z</time>
      </trkpt>
      <trkpt lat="43.99159" lon="3.78945">
        <ele>790.02787887492</ele>
        <time>2017-03-20T12:03:13Z</time>
      </trkpt>
      <trkpt lat="43.99193" lon="3.78934">
        <ele>795.60257042922</ele>
        <time>2017-03-20T12:03:38Z</time>
      </trkpt>
      <trkpt lat="43.99194" lon="3.78933">
        <ele>795.60257042922</ele>
        <time>2017-03-20T12:03:40Z</time>
      </trkpt>
      <trkpt lat="43.99197" lon="3.78931">
        <ele>795.60257042922</ele>
        <time>2017-03-20T12:03:45Z</time>
      </trkpt>
      <trkpt lat="43.99207" lon="3.78927">
        <ele>801.85020805379</ele>
        <time>2017-03-20T12:04:15Z</time>
      </trkpt>
      <trkpt lat="43.99208" lon="3.78925">
        <ele>801.85020805379</ele>
        <time>2017-03-20T12:04:45Z</time>
      </trkpt>
      <trkpt lat="43.99211" lon="3.78931">
        <ele>801.85020805379</ele>
        <time>2017-03-20T12:05:02Z</time>
      </trkpt>
      <trkpt lat="43.99209" lon="3.79003">
        <ele>807.25289284498</ele>
        <time>2017-03-20T12:06:17Z</time>
      </trkpt>
      <trkpt lat="43.99206" lon="3.79016">
        <ele>811.9491695608</ele>
        <time>2017-03-20T12:06:17Z</time>
      </trkpt>
      <trkpt lat="43.992" lon="3.79024">
        <ele>811.9491695608</ele>
        <time>2017-03-20T12:06:25Z</time>
      </trkpt>
      <trkpt lat="43.99197" lon="3.79029">
        <ele>815.98345668438</ele>
        <time>2017-03-20T12:06:30Z</time>
      </trkpt>
      <trkpt lat="43.9919" lon="3.79065">
        <ele>819.41369773257</ele>
        <time>2017-03-20T12:06:50Z</time>
      </trkpt>
      <trkpt lat="43.99174" lon="3.79111">
        <ele>822.33900376163</ele>
        <time>2017-03-20T12:07:22Z</time>
      </trkpt>
      <trkpt lat="43.99161" lon="3.79145">
        <ele>825.01161267191</ele>
        <time>2017-03-20T12:07:45Z</time>
      </trkpt>
      <trkpt lat="43.9916" lon="3.79152">
        <ele>825.01161267191</ele>
        <time>2017-03-20T12:07:50Z</time>
      </trkpt>
      <trkpt lat="43.99158" lon="3.79157">
        <ele>827.33491957112</ele>
        <time>2017-03-20T12:07:55Z</time>
      </trkpt>
      <trkpt lat="43.99157" lon="3.79165">
        <ele>827.33491957112</ele>
        <time>2017-03-20T12:08:00Z</time>
      </trkpt>
      <trkpt lat="43.99155" lon="3.79172">
        <ele>829.3505000238</ele>
        <time>2017-03-20T12:08:05Z</time>
      </trkpt>
      <trkpt lat="43.99153" lon="3.79181">
        <ele>829.3505000238</ele>
        <time>2017-03-20T12:08:10Z</time>
      </trkpt>
      <trkpt lat="43.99149" lon="3.79187">
        <ele>831.01163900657</ele>
        <time>2017-03-20T12:08:15Z</time>
      </trkpt>
      <trkpt lat="43.99147" lon="3.79191">
        <ele>831.01163900657</ele>
        <time>2017-03-20T12:08:21Z</time>
      </trkpt>
      <trkpt lat="43.99137" lon="3.79207">
        <ele>832.36284577092</ele>
        <time>2017-03-20T12:08:38Z</time>
      </trkpt>
      <trkpt lat="43.99136" lon="3.79233">
        <ele>833.30241115546</ele>
        <time>2017-03-20T12:08:58Z</time>
      </trkpt>
      <trkpt lat="43.99155" lon="3.79296">
        <ele>834.04014200963</ele>
        <time>2017-03-20T12:09:46Z</time>
      </trkpt>
      <trkpt lat="43.99159" lon="3.79303">
        <ele>834.04014200963</ele>
        <time>2017-03-20T12:09:47Z</time>
      </trkpt>
      <trkpt lat="43.99166" lon="3.7931">
        <ele>834.48299210629</ele>
        <time>2017-03-20T12:09:58Z</time>
      </trkpt>
      <trkpt lat="43.99176" lon="3.79326">
        <ele>834.67545539165</ele>
        <time>2017-03-20T12:10:10Z</time>
      </trkpt>
      <trkpt lat="43.9919" lon="3.79344">
        <ele>834.68842048466</ele>
        <time>2017-03-20T12:10:30Z</time>
      </trkpt>
      <trkpt lat="43.99194" lon="3.79351">
        <ele>834.68842048466</ele>
        <time>2017-03-20T12:10:35Z</time>
      </trkpt>
      <trkpt lat="43.99202" lon="3.79361">
        <ele>834.48729441913</ele>
        <time>2017-03-20T12:10:45Z</time>
      </trkpt>
      <trkpt lat="43.99224" lon="3.79386">
        <ele>834.32891175935</ele>
        <time>2017-03-20T12:11:27Z</time>
      </trkpt>
      <trkpt lat="43.99225" lon="3.79396">
        <ele>834.32891175935</ele>
        <time>2017-03-20T12:11:27Z</time>
      </trkpt>
      <trkpt lat="43.99223" lon="3.79441">
        <ele>834.01881365407</ele>
        <time>2017-03-20T12:12:01Z</time>
      </trkpt>
      <trkpt lat="43.99207" lon="3.79485">
        <ele>833.82399019731</ele>
        <time>2017-03-20T12:12:41Z</time>
      </trkpt>
      <trkpt lat="43.99186" lon="3.79529">
        <ele>833.50147871977</ele>
        <time>2017-03-20T12:13:22Z</time>
      </trkpt>
      <trkpt lat="43.99179" lon="3.79535">
        <ele>833.50147871977</ele>
        <time>2017-03-20T12:13:22Z</time>
      </trkpt>
      <trkpt lat="43.99159" lon="3.79572">
        <ele>832.98497709498</ele>
        <time>2017-03-20T12:13:58Z</time>
      </trkpt>
      <trkpt lat="43.99159" lon="3.79574">
        <ele>832.98497709498</ele>
        <time>2017-03-20T12:13:58Z</time>
      </trkpt>
      <trkpt lat="43.9915" lon="3.79589">
        <ele>832.29996859233</ele>
        <time>2017-03-20T12:14:22Z</time>
      </trkpt>
      <trkpt lat="43.99147" lon="3.79602">
        <ele>831.47041453357</ele>
        <time>2017-03-20T12:14:22Z</time>
      </trkpt>
      <trkpt lat="43.99145" lon="3.7962">
        <ele>830.48995106023</ele>
        <time>2017-03-20T12:14:30Z</time>
      </trkpt>
      <trkpt lat="43.99145" lon="3.79628">
        <ele>830.48995106023</ele>
        <time>2017-03-20T12:14:36Z</time>
      </trkpt>
      <trkpt lat="43.99146" lon="3.79643">
        <ele>829.30969890758</ele>
        <time>2017-03-20T12:14:46Z</time>
      </trkpt>
      <trkpt lat="43.99147" lon="3.7965">
        <ele>829.30969890758</ele>
        <time>2017-03-20T12:14:55Z</time>
      </trkpt>
      <trkpt lat="43.99151" lon="3.79677">
        <ele>827.72621067902</ele>
        <time>2017-03-20T12:15:22Z</time>
      </trkpt>
      <trkpt lat="43.99152" lon="3.79689">
        <ele>827.72621067902</ele>
        <time>2017-03-20T12:15:27Z</time>
      </trkpt>
      <trkpt lat="43.99158" lon="3.79697">
        <ele>825.66718348635</ele>
        <time>2017-03-20T12:15:36Z</time>
      </trkpt>
      <trkpt lat="43.9918" lon="3.79733">
        <ele>823.02348118029</ele>
        <time>2017-03-20T12:16:19Z</time>
      </trkpt>
      <trkpt lat="43.99189" lon="3.79746">
        <ele>820.1132770531</ele>
        <time>2017-03-20T12:17:05Z</time>
      </trkpt>
      <trkpt lat="43.99212" lon="3.79764">
        <ele>815.63218581645</ele>
        <time>2017-03-20T12:18:24Z</time>
      </trkpt>
      <trkpt lat="43.99216" lon="3.79768">
        <ele>815.63218581645</ele>
        <time>2017-03-20T12:18:25Z</time>
      </trkpt>
      <trkpt lat="43.99216" lon="3.79769">
        <ele>815.63218581645</ele>
        <time>2017-03-20T12:18:25Z</time>
      </trkpt>
      <trkpt lat="43.99223" lon="3.79774">
        <ele>811.34441207894</ele>
        <time>2017-03-20T12:18:34Z</time>
      </trkpt>
      <trkpt lat="43.99225" lon="3.79775">
        <ele>811.34441207894</ele>
        <time>2017-03-20T12:18:35Z</time>
      </trkpt>
      <trkpt lat="43.99245" lon="3.79788">
        <ele>807.21197232271</ele>
        <time>2017-03-20T12:19:00Z</time>
      </trkpt>
      <trkpt lat="43.99283" lon="3.79832">
        <ele>803.22767241877</ele>
        <time>2017-03-20T12:19:42Z</time>
      </trkpt>
      <trkpt lat="43.99291" lon="3.7985">
        <ele>799.48489492715</ele>
        <time>2017-03-20T12:19:58Z</time>
      </trkpt>
      <trkpt lat="43.99292" lon="3.79855">
        <ele>799.48489492715</ele>
        <time>2017-03-20T12:19:58Z</time>
      </trkpt>
      <trkpt lat="43.99302" lon="3.79874">
        <ele>796.04022695913</ele>
        <time>2017-03-20T12:20:31Z</time>
      </trkpt>
      <trkpt lat="43.99307" lon="3.7988">
        <ele>796.04022695913</ele>
        <time>2017-03-20T12:20:31Z</time>
      </trkpt>
      <trkpt lat="43.99315" lon="3.79899">
        <ele>792.8727541523</ele>
        <time>2017-03-20T12:20:49Z</time>
      </trkpt>
      <trkpt lat="43.99339" lon="3.79908">
        <ele>790.23566796652</ele>
        <time>2017-03-20T12:21:22Z</time>
      </trkpt>
      <trkpt lat="43.99362" lon="3.7992">
        <ele>788.08779065879</ele>
        <time>2017-03-20T12:21:44Z</time>
      </trkpt>
      <trkpt lat="43.99363" lon="3.79921">
        <ele>788.08779065879</ele>
        <time>2017-03-20T12:21:46Z</time>
      </trkpt>
      <trkpt lat="43.99404" lon="3.7992">
        <ele>785.92796868347</ele>
        <time>2017-03-20T12:22:28Z</time>
      </trkpt>
      <trkpt lat="43.99405" lon="3.79919">
        <ele>785.92796868347</ele>
        <time>2017-03-20T12:22:31Z</time>
      </trkpt>
      <trkpt lat="43.9941" lon="3.79919">
        <ele>785.92796868347</ele>
        <time>2017-03-20T12:22:47Z</time>
      </trkpt>
      <trkpt lat="43.99408" lon="3.79919">
        <ele>785.92796868347</ele>
        <time>2017-03-20T12:22:50Z</time>
      </trkpt>
      <trkpt lat="43.99401" lon="3.79927">
        <ele>783.34907028835</ele>
        <time>2017-03-20T12:23:18Z</time>
      </trkpt>
      <trkpt lat="43.99401" lon="3.79931">
        <ele>783.34907028835</ele>
        <time>2017-03-20T12:23:20Z</time>
      </trkpt>
      <trkpt lat="43.99401" lon="3.79934">
        <ele>783.34907028835</ele>
        <time>2017-03-20T12:23:25Z</time>
      </trkpt>
      <trkpt lat="43.994" lon="3.79936">
        <ele>783.34907028835</ele>
        <time>2017-03-20T12:23:42Z</time>
      </trkpt>
      <trkpt lat="43.99368" lon="3.79975">
        <ele>780.96894833507</ele>
        <time>2017-03-20T12:25:18Z</time>
      </trkpt>
      <trkpt lat="43.99362" lon="3.79996">
        <ele>779.01318367312</ele>
        <time>2017-03-20T12:25:50Z</time>
      </trkpt>
      <trkpt lat="43.99358" lon="3.8">
        <ele>779.01318367312</ele>
        <time>2017-03-20T12:25:50Z</time>
      </trkpt>
      <trkpt lat="43.99359" lon="3.8">
        <ele>779.01318367312</ele>
        <time>2017-03-20T12:25:51Z</time>
      </trkpt>
      <trkpt lat="43.99359" lon="3.79999">
        <ele>779.01318367312</ele>
        <time>2017-03-20T12:26:07Z</time>
      </trkpt>
      <trkpt lat="43.9935" lon="3.80006">
        <ele>777.50179882436</ele>
        <time>2017-03-20T12:26:08Z</time>
      </trkpt>
      <trkpt lat="43.9935" lon="3.80019">
        <ele>776.56694671409</ele>
        <time>2017-03-20T12:26:55Z</time>
      </trkpt>
      <trkpt lat="43.99351" lon="3.80021">
        <ele>776.56694671409</ele>
        <time>2017-03-20T12:27:02Z</time>
      </trkpt>
      <trkpt lat="43.99346" lon="3.80022">
        <ele>776.56694671409</ele>
        <time>2017-03-20T12:27:10Z</time>
      </trkpt>
      <trkpt lat="43.99322" lon="3.80043">
        <ele>776.64607474091</ele>
        <time>2017-03-20T12:28:02Z</time>
      </trkpt>
      <trkpt lat="43.99302" lon="3.80065">
        <ele>777.14687952894</ele>
        <time>2017-03-20T12:28:46Z</time>
      </trkpt>
      <trkpt lat="43.99302" lon="3.80065">
        <ele>777.14687952894</ele>
        <time>2017-03-20T12:28:46Z</time>
      </trkpt>
      <trkpt lat="43.99296" lon="3.80073">
        <ele>777.14687952894</ele>
        <time>2017-03-20T12:29:01Z</time>
      </trkpt>
      <trkpt lat="43.99295" lon="3.80073">
        <ele>777.89369561542</ele>
        <time>2017-03-20T12:29:01Z</time>
      </trkpt>
      <trkpt lat="43.99291" lon="3.80095">
        <ele>779.86120236231</ele>
        <time>2017-03-20T12:29:59Z</time>
      </trkpt>
      <trkpt lat="43.99286" lon="3.80097">
        <ele>779.86120236231</ele>
        <time>2017-03-20T12:29:59Z</time>
      </trkpt>
      <trkpt lat="43.99286" lon="3.80098">
        <ele>779.86120236231</ele>
        <time>2017-03-20T12:30:00Z</time>
      </trkpt>
      <trkpt lat="43.99279" lon="3.80115">
        <ele>782.52204121909</ele>
        <time>2017-03-20T12:30:42Z</time>
      </trkpt>
      <trkpt lat="43.99278" lon="3.8012">
        <ele>782.52204121909</ele>
        <time>2017-03-20T12:30:42Z</time>
      </trkpt>
      <trkpt lat="43.99251" lon="3.80145">
        <ele>786.39415352317</ele>
        <time>2017-03-20T12:32:20Z</time>
      </trkpt>
      <trkpt lat="43.99251" lon="3.80145">
        <ele>786.39415352317</ele>
        <time>2017-03-20T12:32:41Z</time>
      </trkpt>
      <trkpt lat="43.99247" lon="3.80157">
        <ele>790.19564848533</ele>
        <time>2017-03-20T12:32:41Z</time>
      </trkpt>
      <trkpt lat="43.99249" lon="3.80169">
        <ele>795.46252119203</ele>
        <time>2017-03-20T12:34:37Z</time>
      </trkpt>
      <trkpt lat="43.99243" lon="3.8017">
        <ele>795.46252119203</ele>
        <time>2017-03-20T12:37:58Z</time>
      </trkpt>
      <trkpt lat="43.99242" lon="3.80171">
        <ele>795.46252119203</ele>
        <time>2017-03-20T12:38:00Z</time>
      </trkpt>
      <trkpt lat="43.99221" lon="3.80194">
        <ele>801.42320323484</ele>
        <time>2017-03-20T12:39:22Z</time>
      </trkpt>
      <trkpt lat="43.99221" lon="3.80194">
        <ele>801.42320323484</ele>
        <time>2017-03-20T12:39:25Z</time>
      </trkpt>
      <trkpt lat="43.99214" lon="3.80207">
        <ele>807.21667222951</ele>
        <time>2017-03-20T12:39:56Z</time>
      </trkpt>
      <trkpt lat="43.99212" lon="3.80211">
        <ele>807.21667222951</ele>
        <time>2017-03-20T12:40:00Z</time>
      </trkpt>
      <trkpt lat="43.99203" lon="3.80225">
        <ele>812.6364585871</ele>
        <time>2017-03-20T12:40:17Z</time>
      </trkpt>
      <trkpt lat="43.99188" lon="3.8026">
        <ele>817.79497036249</ele>
        <time>2017-03-20T12:40:59Z</time>
      </trkpt>
      <trkpt lat="43.99185" lon="3.8027">
        <ele>817.79497036249</ele>
        <time>2017-03-20T12:41:01Z</time>
      </trkpt>
      <trkpt lat="43.99181" lon="3.80276">
        <ele>822.66746594056</ele>
        <time>2017-03-20T12:41:13Z</time>
      </trkpt>
      <trkpt lat="43.99181" lon="3.80277">
        <ele>822.66746594056</ele>
        <time>2017-03-20T12:41:15Z</time>
      </trkpt>
      <trkpt lat="43.99181" lon="3.80281">
        <ele>822.66746594056</ele>
        <time>2017-03-20T12:41:45Z</time>
      </trkpt>
      <trkpt lat="43.99182" lon="3.80285">
        <ele>822.66746594056</ele>
        <time>2017-03-20T12:41:50Z</time>
      </trkpt>
      <trkpt lat="43.99182" lon="3.80288">
        <ele>828.08219586965</ele>
        <time>2017-03-20T12:41:55Z</time>
      </trkpt>
      <trkpt lat="43.99175" lon="3.8032">
        <ele>833.00380958198</ele>
        <time>2017-03-20T12:42:35Z</time>
      </trkpt>
      <trkpt lat="43.99169" lon="3.80348">
        <ele>837.46894752352</ele>
        <time>2017-03-20T12:43:01Z</time>
      </trkpt>
      <trkpt lat="43.99162" lon="3.8037">
        <ele>841.45540588237</ele>
        <time>2017-03-20T12:43:19Z</time>
      </trkpt>
      <trkpt lat="43.99158" lon="3.80377">
        <ele>841.45540588237</ele>
        <time>2017-03-20T12:43:25Z</time>
      </trkpt>
      <trkpt lat="43.99153" lon="3.80405">
        <ele>844.61273133153</ele>
        <time>2017-03-20T12:44:02Z</time>
      </trkpt>
      <trkpt lat="43.99151" lon="3.80408">
        <ele>844.61273133153</ele>
        <time>2017-03-20T12:44:05Z</time>
      </trkpt>
      <trkpt lat="43.99145" lon="3.80426">
        <ele>847.18082043988</ele>
        <time>2017-03-20T12:44:31Z</time>
      </trkpt>
      <trkpt lat="43.99143" lon="3.80433">
        <ele>847.18082043988</ele>
        <time>2017-03-20T12:44:32Z</time>
      </trkpt>
      <trkpt lat="43.99133" lon="3.80446">
        <ele>849.19650899703</ele>
        <time>2017-03-20T12:44:50Z</time>
      </trkpt>
      <trkpt lat="43.99152" lon="3.80485">
        <ele>850.50838577887</ele>
        <time>2017-03-20T12:45:35Z</time>
      </trkpt>
      <trkpt lat="43.99133" lon="3.80508">
        <ele>850.73339465254</ele>
        <time>2017-03-20T12:46:34Z</time>
      </trkpt>
      <trkpt lat="43.99132" lon="3.80572">
        <ele>850.12516835886</ele>
        <time>2017-03-20T12:47:36Z</time>
      </trkpt>
      <trkpt lat="43.99133" lon="3.80574">
        <ele>850.12516835886</ele>
        <time>2017-03-20T12:47:36Z</time>
      </trkpt>
      <trkpt lat="43.99134" lon="3.80595">
        <ele>848.96449328574</ele>
        <time>2017-03-20T12:48:05Z</time>
      </trkpt>
      <trkpt lat="43.9913" lon="3.80605">
        <ele>848.96449328574</ele>
        <time>2017-03-20T12:48:20Z</time>
      </trkpt>
      <trkpt lat="43.9913" lon="3.80607">
        <ele>847.38356884587</ele>
        <time>2017-03-20T12:48:25Z</time>
      </trkpt>
      <trkpt lat="43.99119" lon="3.80632">
        <ele>845.30446692064</ele>
        <time>2017-03-20T12:48:55Z</time>
      </trkpt>
      <trkpt lat="43.99118" lon="3.80639">
        <ele>845.30446692064</ele>
        <time>2017-03-20T12:48:57Z</time>
      </trkpt>
      <trkpt lat="43.99122" lon="3.80653">
        <ele>843.03119939911</ele>
        <time>2017-03-20T12:49:23Z</time>
      </trkpt>
      <trkpt lat="43.99134" lon="3.80663">
        <ele>840.74520892901</ele>
        <time>2017-03-20T12:49:32Z</time>
      </trkpt>
      <trkpt lat="43.99134" lon="3.80663">
        <ele>840.74520892901</ele>
        <time>2017-03-20T12:49:32Z</time>
      </trkpt>
      <trkpt lat="43.99134" lon="3.80663">
        <ele>840.74520892901</ele>
        <time>2017-03-20T12:50:06Z</time>
      </trkpt>
      <trkpt lat="43.99134" lon="3.80663">
        <ele>840.74520892901</ele>
        <time>2017-03-20T13:09:45Z</time>
      </trkpt>
      <trkpt lat="43.99123" lon="3.80669">
        <ele>836.84213915971</ele>
        <time>2017-03-20T13:10:09Z</time>
      </trkpt>
      <trkpt lat="43.99114" lon="3.80688">
        <ele>832.95285195025</ele>
        <time>2017-03-20T13:11:05Z</time>
      </trkpt>
      <trkpt lat="43.99114" lon="3.80685">
        <ele>832.95285195025</ele>
        <time>2017-03-20T13:11:06Z</time>
      </trkpt>
      <trkpt lat="43.99116" lon="3.8067">
        <ele>829.33459041652</ele>
        <time>2017-03-20T13:11:28Z</time>
      </trkpt>
      <trkpt lat="43.99112" lon="3.80659">
        <ele>826.02313822991</ele>
        <time>2017-03-20T13:12:11Z</time>
      </trkpt>
      <trkpt lat="43.99115" lon="3.80661">
        <ele>826.02313822991</ele>
        <time>2017-03-20T13:12:50Z</time>
      </trkpt>
      <trkpt lat="43.99088" lon="3.80731">
        <ele>822.77689790592</ele>
        <time>2017-03-20T13:14:24Z</time>
      </trkpt>
      <trkpt lat="43.99082" lon="3.80729">
        <ele>822.77689790592</ele>
        <time>2017-03-20T13:14:24Z</time>
      </trkpt>
      <trkpt lat="43.99082" lon="3.80729">
        <ele>822.77689790592</ele>
        <time>2017-03-20T13:14:25Z</time>
      </trkpt>
      <trkpt lat="43.99082" lon="3.8073">
        <ele>822.77689790592</ele>
        <time>2017-03-20T13:14:30Z</time>
      </trkpt>
      <trkpt lat="43.99077" lon="3.80725">
        <ele>819.40054813353</ele>
        <time>2017-03-20T13:14:49Z</time>
      </trkpt>
      <trkpt lat="43.99067" lon="3.80717">
        <ele>816.14567721232</ele>
        <time>2017-03-20T13:15:08Z</time>
      </trkpt>
      <trkpt lat="43.99061" lon="3.80712">
        <ele>816.14567721232</ele>
        <time>2017-03-20T13:15:09Z</time>
      </trkpt>
      <trkpt lat="43.99049" lon="3.80697">
        <ele>812.74050121355</ele>
        <time>2017-03-20T13:15:33Z</time>
      </trkpt>
      <trkpt lat="43.99043" lon="3.80691">
        <ele>812.74050121355</ele>
        <time>2017-03-20T13:15:33Z</time>
      </trkpt>
      <trkpt lat="43.9903" lon="3.80681">
        <ele>809.1784292662</ele>
        <time>2017-03-20T13:15:52Z</time>
      </trkpt>
      <trkpt lat="43.99029" lon="3.80681">
        <ele>809.1784292662</ele>
        <time>2017-03-20T13:15:57Z</time>
      </trkpt>
      <trkpt lat="43.99024" lon="3.80675">
        <ele>809.1784292662</ele>
        <time>2017-03-20T13:16:00Z</time>
      </trkpt>
      <trkpt lat="43.99011" lon="3.80663">
        <ele>805.26624692581</ele>
        <time>2017-03-20T13:16:14Z</time>
      </trkpt>
      <trkpt lat="43.9901" lon="3.80663">
        <ele>805.26624692581</ele>
        <time>2017-03-20T13:16:15Z</time>
      </trkpt>
      <trkpt lat="43.99006" lon="3.8066">
        <ele>805.26624692581</ele>
        <time>2017-03-20T13:16:20Z</time>
      </trkpt>
      <trkpt lat="43.98986" lon="3.80626">
        <ele>800.82569163589</ele>
        <time>2017-03-20T13:17:00Z</time>
      </trkpt>
      <trkpt lat="43.98986" lon="3.80618">
        <ele>800.82569163589</ele>
        <time>2017-03-20T13:17:02Z</time>
      </trkpt>
      <trkpt lat="43.98978" lon="3.80583">
        <ele>795.63518862035</ele>
        <time>2017-03-20T13:17:31Z</time>
      </trkpt>
      <trkpt lat="43.98978" lon="3.80581">
        <ele>795.63518862035</ele>
        <time>2017-03-20T13:17:31Z</time>
      </trkpt>
      <trkpt lat="43.98979" lon="3.80578">
        <ele>795.63518862035</ele>
        <time>2017-03-20T13:17:35Z</time>
      </trkpt>
      <trkpt lat="43.98965" lon="3.80546">
        <ele>790.4135880563</ele>
        <time>2017-03-20T13:18:04Z</time>
      </trkpt>
      <trkpt lat="43.9894" lon="3.80431">
        <ele>784.03975076598</ele>
        <time>2017-03-20T13:19:27Z</time>
      </trkpt>
      <trkpt lat="43.98938" lon="3.80429">
        <ele>784.03975076598</ele>
        <time>2017-03-20T13:19:33Z</time>
      </trkpt>
      <trkpt lat="43.98923" lon="3.80394">
        <ele>777.74035612647</ele>
        <time>2017-03-20T13:19:52Z</time>
      </trkpt>
      <trkpt lat="43.98871" lon="3.80334">
        <ele>771.0806077316</ele>
        <time>2017-03-20T13:20:50Z</time>
      </trkpt>
      <trkpt lat="43.98866" lon="3.80329">
        <ele>771.0806077316</ele>
        <time>2017-03-20T13:20:55Z</time>
      </trkpt>
      <trkpt lat="43.98855" lon="3.8032">
        <ele>764.85441309321</ele>
        <time>2017-03-20T13:21:05Z</time>
      </trkpt>
      <trkpt lat="43.9885" lon="3.80318">
        <ele>764.85441309321</ele>
        <time>2017-03-20T13:21:10Z</time>
      </trkpt>
      <trkpt lat="43.98838" lon="3.8031">
        <ele>758.98872798305</ele>
        <time>2017-03-20T13:21:20Z</time>
      </trkpt>
      <trkpt lat="43.98834" lon="3.80307">
        <ele>758.98872798305</ele>
        <time>2017-03-20T13:21:25Z</time>
      </trkpt>
      <trkpt lat="43.9882" lon="3.80292">
        <ele>753.35680592979</ele>
        <time>2017-03-20T13:21:40Z</time>
      </trkpt>
      <trkpt lat="43.98809" lon="3.80276">
        <ele>748.01306197347</ele>
        <time>2017-03-20T13:21:55Z</time>
      </trkpt>
      <trkpt lat="43.9874" lon="3.80225">
        <ele>742.27170091493</ele>
        <time>2017-03-20T13:23:04Z</time>
      </trkpt>
      <trkpt lat="43.98736" lon="3.80225">
        <ele>742.27170091493</ele>
        <time>2017-03-20T13:23:10Z</time>
      </trkpt>
      <trkpt lat="43.98713" lon="3.80218">
        <ele>736.8958549433</ele>
        <time>2017-03-20T13:23:25Z</time>
      </trkpt>
      <trkpt lat="43.98713" lon="3.80218">
        <ele>736.8958549433</ele>
        <time>2017-03-20T13:23:26Z</time>
      </trkpt>
      <trkpt lat="43.98668" lon="3.80211">
        <ele>731.85615627187</ele>
        <time>2017-03-20T13:24:18Z</time>
      </trkpt>
      <trkpt lat="43.98663" lon="3.80212">
        <ele>731.85615627187</ele>
        <time>2017-03-20T13:24:20Z</time>
      </trkpt>
      <trkpt lat="43.98549" lon="3.80177">
        <ele>726.41785619976</ele>
        <time>2017-03-20T13:26:00Z</time>
      </trkpt>
      <trkpt lat="43.98534" lon="3.80157">
        <ele>721.50048248469</ele>
        <time>2017-03-20T13:26:01Z</time>
      </trkpt>
      <trkpt lat="43.98492" lon="3.80111">
        <ele>717.08944052244</ele>
        <time>2017-03-20T13:26:54Z</time>
      </trkpt>
      <trkpt lat="43.98478" lon="3.80098">
        <ele>712.9243591606</ele>
        <time>2017-03-20T13:27:00Z</time>
      </trkpt>
      <trkpt lat="43.98448" lon="3.80015">
        <ele>708.79169644222</ele>
        <time>2017-03-20T13:28:17Z</time>
      </trkpt>
      <trkpt lat="43.98452" lon="3.80003">
        <ele>705.38657922462</ele>
        <time>2017-03-20T13:28:50Z</time>
      </trkpt>
      <trkpt lat="43.98452" lon="3.8">
        <ele>705.38657922462</ele>
        <time>2017-03-20T13:28:55Z</time>
      </trkpt>
      <trkpt lat="43.98451" lon="3.79996">
        <ele>705.38657922462</ele>
        <time>2017-03-20T13:29:00Z</time>
      </trkpt>
      <trkpt lat="43.98457" lon="3.79978">
        <ele>702.48596355878</ele>
        <time>2017-03-20T13:29:26Z</time>
      </trkpt>
      <trkpt lat="43.98458" lon="3.79971">
        <ele>702.48596355878</ele>
        <time>2017-03-20T13:29:26Z</time>
      </trkpt>
      <trkpt lat="43.98435" lon="3.79939">
        <ele>699.67963963775</ele>
        <time>2017-03-20T13:29:54Z</time>
      </trkpt>
      <trkpt lat="43.98427" lon="3.79929">
        <ele>697.16335435574</ele>
        <time>2017-03-20T13:29:54Z</time>
      </trkpt>
      <trkpt lat="43.98419" lon="3.79971">
        <ele>695.03086260966</ele>
        <time>2017-03-20T13:30:35Z</time>
      </trkpt>
      <trkpt lat="43.98412" lon="3.79976">
        <ele>695.03086260966</ele>
        <time>2017-03-20T13:30:35Z</time>
      </trkpt>
      <trkpt lat="43.98405" lon="3.79983">
        <ele>693.25236104696</ele>
        <time>2017-03-20T13:30:51Z</time>
      </trkpt>
      <trkpt lat="43.984" lon="3.79987">
        <ele>693.25236104696</ele>
        <time>2017-03-20T13:30:52Z</time>
      </trkpt>
      <trkpt lat="43.98364" lon="3.80015">
        <ele>692.04395467404</ele>
        <time>2017-03-20T13:31:34Z</time>
      </trkpt>
      <trkpt lat="43.98354" lon="3.80021">
        <ele>691.22933888174</ele>
        <time>2017-03-20T13:31:34Z</time>
      </trkpt>
      <trkpt lat="43.98319" lon="3.80035">
        <ele>690.77354182629</ele>
        <time>2017-03-20T13:32:07Z</time>
      </trkpt>
      <trkpt lat="43.98312" lon="3.80042">
        <ele>690.77354182629</ele>
        <time>2017-03-20T13:32:07Z</time>
      </trkpt>
      <trkpt lat="43.98271" lon="3.80114">
        <ele>689.21627140556</ele>
        <time>2017-03-20T13:32:59Z</time>
      </trkpt>
      <trkpt lat="43.9827" lon="3.80115">
        <ele>689.21627140556</ele>
        <time>2017-03-20T13:33:00Z</time>
      </trkpt>
      <trkpt lat="43.98269" lon="3.80121">
        <ele>689.21627140556</ele>
        <time>2017-03-20T13:33:05Z</time>
      </trkpt>
      <trkpt lat="43.98256" lon="3.80193">
        <ele>686.47562240146</ele>
        <time>2017-03-20T13:33:55Z</time>
      </trkpt>
      <trkpt lat="43.98252" lon="3.80207">
        <ele>683.99206445645</ele>
        <time>2017-03-20T13:33:55Z</time>
      </trkpt>
      <trkpt lat="43.9825" lon="3.80264">
        <ele>681.39890858752</ele>
        <time>2017-03-20T13:34:27Z</time>
      </trkpt>
      <trkpt lat="43.98252" lon="3.80329">
        <ele>678.50072569417</ele>
        <time>2017-03-20T13:35:01Z</time>
      </trkpt>
      <trkpt lat="43.98263" lon="3.80397">
        <ele>675.17485827974</ele>
        <time>2017-03-20T13:35:47Z</time>
      </trkpt>
      <trkpt lat="43.98266" lon="3.80408">
        <ele>675.17485827974</ele>
        <time>2017-03-20T13:35:47Z</time>
      </trkpt>
      <trkpt lat="43.9827" lon="3.80422">
        <ele>672.10139536566</ele>
        <time>2017-03-20T13:35:56Z</time>
      </trkpt>
      <trkpt lat="43.98275" lon="3.80429">
        <ele>672.10139536566</ele>
        <time>2017-03-20T13:36:01Z</time>
      </trkpt>
      <trkpt lat="43.98306" lon="3.80444">
        <ele>668.72797967862</ele>
        <time>2017-03-20T13:36:29Z</time>
      </trkpt>
      <trkpt lat="43.98329" lon="3.80439">
        <ele>665.58121011894</ele>
        <time>2017-03-20T13:36:55Z</time>
      </trkpt>
      <trkpt lat="43.98274" lon="3.80493">
        <ele>661.8368974765</ele>
        <time>2017-03-20T13:38:01Z</time>
      </trkpt>
      <trkpt lat="43.98172" lon="3.80316">
        <ele>657.98678692795</ele>
        <time>2017-03-20T13:40:27Z</time>
      </trkpt>
      <trkpt lat="43.98155" lon="3.80262">
        <ele>654.18411236752</ele>
        <time>2017-03-20T13:41:06Z</time>
      </trkpt>
      <trkpt lat="43.98149" lon="3.80282">
        <ele>650.42655687949</ele>
        <time>2017-03-20T13:41:25Z</time>
      </trkpt>
      <trkpt lat="43.98153" lon="3.80311">
        <ele>646.72620870193</ele>
        <time>2017-03-20T13:41:47Z</time>
      </trkpt>
      <trkpt lat="43.98154" lon="3.8032">
        <ele>646.72620870193</ele>
        <time>2017-03-20T13:41:47Z</time>
      </trkpt>
      <trkpt lat="43.98154" lon="3.80411">
        <ele>642.58966890477</ele>
        <time>2017-03-20T13:42:45Z</time>
      </trkpt>
      <trkpt lat="43.98156" lon="3.80428">
        <ele>638.74266928312</ele>
        <time>2017-03-20T13:43:10Z</time>
      </trkpt>
      <trkpt lat="43.98162" lon="3.80601">
        <ele>634.43006703008</ele>
        <time>2017-03-20T13:44:50Z</time>
      </trkpt>
      <trkpt lat="43.98166" lon="3.80619">
        <ele>630.49543669075</ele>
        <time>2017-03-20T13:45:05Z</time>
      </trkpt>
      <trkpt lat="43.98182" lon="3.80647">
        <ele>626.92666167084</ele>
        <time>2017-03-20T13:45:25Z</time>
      </trkpt>
      <trkpt lat="43.98188" lon="3.8065">
        <ele>626.92666167084</ele>
        <time>2017-03-20T13:45:30Z</time>
      </trkpt>
      <trkpt lat="43.98193" lon="3.8065">
        <ele>623.76908402173</ele>
        <time>2017-03-20T13:45:35Z</time>
      </trkpt>
      <trkpt lat="43.98201" lon="3.80653">
        <ele>623.76908402173</ele>
        <time>2017-03-20T13:45:55Z</time>
      </trkpt>
      <trkpt lat="43.98216" lon="3.80654">
        <ele>620.94822636619</ele>
        <time>2017-03-20T13:45:55Z</time>
      </trkpt>
      <trkpt lat="43.9823" lon="3.80666">
        <ele>618.37968677204</ele>
        <time>2017-03-20T13:46:13Z</time>
      </trkpt>
      <trkpt lat="43.98231" lon="3.80667">
        <ele>618.37968677204</ele>
        <time>2017-03-20T13:46:13Z</time>
      </trkpt>
      <trkpt lat="43.9829" lon="3.80753">
        <ele>615.23514487785</ele>
        <time>2017-03-20T13:47:29Z</time>
      </trkpt>
      <trkpt lat="43.98295" lon="3.80751">
        <ele>615.23514487785</ele>
        <time>2017-03-20T13:47:29Z</time>
      </trkpt>
      <trkpt lat="43.98316" lon="3.80746">
        <ele>612.333942481</ele>
        <time>2017-03-20T13:47:49Z</time>
      </trkpt>
      <trkpt lat="43.9833" lon="3.80736">
        <ele>609.85808973641</ele>
        <time>2017-03-20T13:48:12Z</time>
      </trkpt>
      <trkpt lat="43.98339" lon="3.80727">
        <ele>607.80209272204</ele>
        <time>2017-03-20T13:48:13Z</time>
      </trkpt>
      <trkpt lat="43.98351" lon="3.80713">
        <ele>606.13086399432</ele>
        <time>2017-03-20T13:48:34Z</time>
      </trkpt>
      <trkpt lat="43.98359" lon="3.80702">
        <ele>604.8252407487</ele>
        <time>2017-03-20T13:48:38Z</time>
      </trkpt>
      <trkpt lat="43.98376" lon="3.80673">
        <ele>603.89529468972</ele>
        <time>2017-03-20T13:49:00Z</time>
      </trkpt>
      <trkpt lat="43.98381" lon="3.80665">
        <ele>603.89529468972</ele>
        <time>2017-03-20T13:49:05Z</time>
      </trkpt>
      <trkpt lat="43.98415" lon="3.80549">
        <ele>601.92264781515</ele>
        <time>2017-03-20T13:50:09Z</time>
      </trkpt>
      <trkpt lat="43.98415" lon="3.80547">
        <ele>601.92264781515</ele>
        <time>2017-03-20T13:50:09Z</time>
      </trkpt>
      <trkpt lat="43.98424" lon="3.80523">
        <ele>600.01716648962</ele>
        <time>2017-03-20T13:50:25Z</time>
      </trkpt>
      <trkpt lat="43.9843" lon="3.80507">
        <ele>598.34240223738</ele>
        <time>2017-03-20T13:50:50Z</time>
      </trkpt>
      <trkpt lat="43.98476" lon="3.80519">
        <ele>597.58253854077</ele>
        <time>2017-03-20T13:51:39Z</time>
      </trkpt>
      <trkpt lat="43.98487" lon="3.80523">
        <ele>597.17290364657</ele>
        <time>2017-03-20T13:51:39Z</time>
      </trkpt>
      <trkpt lat="43.98505" lon="3.80535">
        <ele>597.12264263669</ele>
        <time>2017-03-20T13:51:55Z</time>
      </trkpt>
      <trkpt lat="43.98531" lon="3.80542">
        <ele>597.41052235391</ele>
        <time>2017-03-20T13:52:22Z</time>
      </trkpt>
      <trkpt lat="43.98539" lon="3.80544">
        <ele>597.41052235391</ele>
        <time>2017-03-20T13:52:22Z</time>
      </trkpt>
      <trkpt lat="43.98579" lon="3.80536">
        <ele>598.4916308842</ele>
        <time>2017-03-20T13:52:59Z</time>
      </trkpt>
      <trkpt lat="43.98626" lon="3.80505">
        <ele>601.50612328254</ele>
        <time>2017-03-20T13:53:50Z</time>
      </trkpt>
      <trkpt lat="43.98673" lon="3.80509">
        <ele>605.61731503246</ele>
        <time>2017-03-20T13:54:40Z</time>
      </trkpt>
      <trkpt lat="43.98633" lon="3.80711">
        <ele>609.93184774161</ele>
        <time>2017-03-20T13:56:58Z</time>
      </trkpt>
      <trkpt lat="43.98633" lon="3.80718">
        <ele>609.93184774161</ele>
        <time>2017-03-20T13:57:00Z</time>
      </trkpt>
      <trkpt lat="43.98622" lon="3.80803">
        <ele>613.67932884133</ele>
        <time>2017-03-20T13:58:03Z</time>
      </trkpt>
      <trkpt lat="43.98622" lon="3.80818">
        <ele>617.12780849806</ele>
        <time>2017-03-20T13:58:08Z</time>
      </trkpt>
      <trkpt lat="43.98629" lon="3.80839">
        <ele>620.23859923991</ele>
        <time>2017-03-20T13:58:24Z</time>
      </trkpt>
      <trkpt lat="43.98633" lon="3.80843">
        <ele>620.23859923991</ele>
        <time>2017-03-20T13:58:24Z</time>
      </trkpt>
      <trkpt lat="43.98674" lon="3.80855">
        <ele>622.17014277161</ele>
        <time>2017-03-20T13:59:01Z</time>
      </trkpt>
      <trkpt lat="43.98697" lon="3.80878">
        <ele>623.73161295036</ele>
        <time>2017-03-20T13:59:27Z</time>
      </trkpt>
      <trkpt lat="43.98698" lon="3.8088">
        <ele>623.73161295036</ele>
        <time>2017-03-20T13:59:27Z</time>
      </trkpt>
      <trkpt lat="43.98691" lon="3.80984">
        <ele>623.46926896874</ele>
        <time>2017-03-20T14:00:36Z</time>
      </trkpt>
      <trkpt lat="43.9869" lon="3.8102">
        <ele>622.69331211792</ele>
        <time>2017-03-20T14:01:01Z</time>
      </trkpt>
      <trkpt lat="43.98689" lon="3.8102">
        <ele>622.69331211792</ele>
        <time>2017-03-20T14:01:05Z</time>
      </trkpt>
      <trkpt lat="43.98686" lon="3.81031">
        <ele>622.69331211792</ele>
        <time>2017-03-20T14:01:20Z</time>
      </trkpt>
      <trkpt lat="43.98684" lon="3.81037">
        <ele>622.08630818597</ele>
        <time>2017-03-20T14:01:25Z</time>
      </trkpt>
      <trkpt lat="43.98682" lon="3.81044">
        <ele>622.08630818597</ele>
        <time>2017-03-20T14:01:30Z</time>
      </trkpt>
      <trkpt lat="43.9868" lon="3.81049">
        <ele>621.53119844493</ele>
        <time>2017-03-20T14:01:35Z</time>
      </trkpt>
      <trkpt lat="43.98675" lon="3.81053">
        <ele>621.53119844493</ele>
        <time>2017-03-20T14:01:40Z</time>
      </trkpt>
      <trkpt lat="43.98673" lon="3.81056">
        <ele>621.53119844493</ele>
        <time>2017-03-20T14:01:45Z</time>
      </trkpt>
      <trkpt lat="43.98672" lon="3.81062">
        <ele>620.99178526613</ele>
        <time>2017-03-20T14:01:50Z</time>
      </trkpt>
      <trkpt lat="43.98663" lon="3.81066">
        <ele>620.99178526613</ele>
        <time>2017-03-20T14:01:55Z</time>
      </trkpt>
      <trkpt lat="43.98658" lon="3.8107">
        <ele>620.46364391052</ele>
        <time>2017-03-20T14:02:00Z</time>
      </trkpt>
      <trkpt lat="43.98653" lon="3.81075">
        <ele>620.46364391052</ele>
        <time>2017-03-20T14:02:05Z</time>
      </trkpt>
      <trkpt lat="43.9865" lon="3.81079">
        <ele>619.92855178064</ele>
        <time>2017-03-20T14:02:10Z</time>
      </trkpt>
      <trkpt lat="43.98648" lon="3.81082">
        <ele>619.92855178064</ele>
        <time>2017-03-20T14:02:15Z</time>
      </trkpt>
      <trkpt lat="43.98615" lon="3.81123">
        <ele>619.25465962399</ele>
        <time>2017-03-20T14:02:59Z</time>
      </trkpt>
      <trkpt lat="43.9859" lon="3.81168">
        <ele>618.53664839901</ele>
        <time>2017-03-20T14:03:25Z</time>
      </trkpt>
      <trkpt lat="43.98582" lon="3.81194">
        <ele>617.80499598667</ele>
        <time>2017-03-20T14:03:45Z</time>
      </trkpt>
      <trkpt lat="43.98609" lon="3.81194">
        <ele>617.07382564974</ele>
        <time>2017-03-20T14:04:08Z</time>
      </trkpt>
      <trkpt lat="43.98672" lon="3.81178">
        <ele>616.29881879185</ele>
        <time>2017-03-20T14:05:18Z</time>
      </trkpt>
      <trkpt lat="43.98676" lon="3.81191">
        <ele>615.48249478124</ele>
        <time>2017-03-20T14:05:25Z</time>
      </trkpt>
      <trkpt lat="43.98675" lon="3.81199">
        <ele>615.48249478124</ele>
        <time>2017-03-20T14:05:30Z</time>
      </trkpt>
      <trkpt lat="43.98677" lon="3.81214">
        <ele>614.58428125638</ele>
        <time>2017-03-20T14:05:49Z</time>
      </trkpt>
      <trkpt lat="43.98678" lon="3.81229">
        <ele>613.52377815934</ele>
        <time>2017-03-20T14:05:49Z</time>
      </trkpt>
      <trkpt lat="43.98678" lon="3.81246">
        <ele>612.34241584175</ele>
        <time>2017-03-20T14:06:08Z</time>
      </trkpt>
      <trkpt lat="43.98683" lon="3.81287">
        <ele>610.37293870582</ele>
        <time>2017-03-20T14:06:33Z</time>
      </trkpt>
      <trkpt lat="43.98684" lon="3.81297">
        <ele>610.37293870582</ele>
        <time>2017-03-20T14:06:33Z</time>
      </trkpt>
      <trkpt lat="43.98692" lon="3.81331">
        <ele>607.7488405085</ele>
        <time>2017-03-20T14:06:54Z</time>
      </trkpt>
      <trkpt lat="43.98693" lon="3.81332">
        <ele>607.7488405085</ele>
        <time>2017-03-20T14:06:55Z</time>
      </trkpt>
      <trkpt lat="43.98696" lon="3.81357">
        <ele>604.99927934787</ele>
        <time>2017-03-20T14:07:12Z</time>
      </trkpt>
      <trkpt lat="43.98697" lon="3.81358">
        <ele>604.99927934787</ele>
        <time>2017-03-20T14:07:13Z</time>
      </trkpt>
      <trkpt lat="43.98712" lon="3.81412">
        <ele>601.60621424007</ele>
        <time>2017-03-20T14:07:49Z</time>
      </trkpt>
      <trkpt lat="43.98712" lon="3.81414">
        <ele>601.60621424007</ele>
        <time>2017-03-20T14:07:51Z</time>
      </trkpt>
      <trkpt lat="43.98724" lon="3.81437">
        <ele>597.95620350277</ele>
        <time>2017-03-20T14:08:11Z</time>
      </trkpt>
      <trkpt lat="43.98742" lon="3.81457">
        <ele>594.09112941217</ele>
        <time>2017-03-20T14:08:25Z</time>
      </trkpt>
      <trkpt lat="43.98763" lon="3.81466">
        <ele>590.15129436272</ele>
        <time>2017-03-20T14:08:50Z</time>
      </trkpt>
      <trkpt lat="43.98769" lon="3.8147">
        <ele>590.15129436272</ele>
        <time>2017-03-20T14:08:50Z</time>
      </trkpt>
      <trkpt lat="43.98769" lon="3.81472">
        <ele>590.15129436272</ele>
        <time>2017-03-20T14:09:03Z</time>
      </trkpt>
      <trkpt lat="43.98795" lon="3.81481">
        <ele>586.0363131671</ele>
        <time>2017-03-20T14:09:30Z</time>
      </trkpt>
      <trkpt lat="43.98801" lon="3.81484">
        <ele>586.0363131671</ele>
        <time>2017-03-20T14:09:35Z</time>
      </trkpt>
      <trkpt lat="43.98822" lon="3.81499">
        <ele>582.21565986785</ele>
        <time>2017-03-20T14:10:00Z</time>
      </trkpt>
      <trkpt lat="43.98826" lon="3.81502">
        <ele>582.21565986785</ele>
        <time>2017-03-20T14:10:00Z</time>
      </trkpt>
      <trkpt lat="43.98827" lon="3.81503">
        <ele>582.21565986785</ele>
        <time>2017-03-20T14:10:25Z</time>
      </trkpt>
      <trkpt lat="43.98854" lon="3.81524">
        <ele>578.57580832137</ele>
        <time>2017-03-20T14:10:25Z</time>
      </trkpt>
      <trkpt lat="43.98866" lon="3.81533">
        <ele>575.14067795715</ele>
        <time>2017-03-20T14:10:35Z</time>
      </trkpt>
      <trkpt lat="43.98888" lon="3.81563">
        <ele>572.01821809012</ele>
        <time>2017-03-20T14:11:01Z</time>
      </trkpt>
      <trkpt lat="43.98937" lon="3.81607">
        <ele>568.03927062056</ele>
        <time>2017-03-20T14:11:57Z</time>
      </trkpt>
      <trkpt lat="43.98947" lon="3.81608">
        <ele>564.31331893666</ele>
        <time>2017-03-20T14:11:57Z</time>
      </trkpt>
      <trkpt lat="43.99008" lon="3.81588">
        <ele>560.0949163967</ele>
        <time>2017-03-20T14:13:01Z</time>
      </trkpt>
      <trkpt lat="43.99028" lon="3.81569">
        <ele>555.96277114135</ele>
        <time>2017-03-20T14:13:13Z</time>
      </trkpt>
      <trkpt lat="43.9903" lon="3.81569">
        <ele>555.96277114135</ele>
        <time>2017-03-20T14:13:14Z</time>
      </trkpt>
      <trkpt lat="43.9905" lon="3.81545">
        <ele>551.83298068477</ele>
        <time>2017-03-20T14:13:35Z</time>
      </trkpt>
      <trkpt lat="43.99101" lon="3.81506">
        <ele>547.68525183153</ele>
        <time>2017-03-20T14:14:23Z</time>
      </trkpt>
      <trkpt lat="43.9913" lon="3.81477">
        <ele>543.48621735774</ele>
        <time>2017-03-20T14:14:50Z</time>
      </trkpt>
      <trkpt lat="43.99177" lon="3.81423">
        <ele>539.04636802384</ele>
        <time>2017-03-20T14:15:35Z</time>
      </trkpt>
      <trkpt lat="43.99196" lon="3.81399">
        <ele>534.83906742046</ele>
        <time>2017-03-20T14:16:08Z</time>
      </trkpt>
      <trkpt lat="43.99212" lon="3.81371">
        <ele>530.91292155533</ele>
        <time>2017-03-20T14:16:15Z</time>
      </trkpt>
      <trkpt lat="43.9922" lon="3.81362">
        <ele>527.41281741306</ele>
        <time>2017-03-20T14:16:23Z</time>
      </trkpt>
      <trkpt lat="43.99283" lon="3.81273">
        <ele>524.34186357006</ele>
        <time>2017-03-20T14:17:34Z</time>
      </trkpt>
      <trkpt lat="43.99284" lon="3.8127">
        <ele>524.34186357006</ele>
        <time>2017-03-20T14:17:35Z</time>
      </trkpt>
      <trkpt lat="43.99308" lon="3.81237">
        <ele>521.70149813865</ele>
        <time>2017-03-20T14:18:01Z</time>
      </trkpt>
      <trkpt lat="43.99365" lon="3.81178">
        <ele>520.01041423672</ele>
        <time>2017-03-20T14:19:00Z</time>
      </trkpt>
      <trkpt lat="43.99367" lon="3.81177">
        <ele>520.01041423672</ele>
        <time>2017-03-20T14:19:01Z</time>
      </trkpt>
      <trkpt lat="43.99392" lon="3.81156">
        <ele>518.83841839082</ele>
        <time>2017-03-20T14:19:25Z</time>
      </trkpt>
      <trkpt lat="43.99392" lon="3.81153">
        <ele>518.83841839082</ele>
        <time>2017-03-20T14:19:30Z</time>
      </trkpt>
      <trkpt lat="43.99393" lon="3.81145">
        <ele>518.83841839082</ele>
        <time>2017-03-20T14:19:40Z</time>
      </trkpt>
      <trkpt lat="43.99398" lon="3.81114">
        <ele>517.51144605432</ele>
        <time>2017-03-20T14:20:00Z</time>
      </trkpt>
      <trkpt lat="43.99386" lon="3.81038">
        <ele>516.54367497547</ele>
        <time>2017-03-20T14:20:58Z</time>
      </trkpt>
      <trkpt lat="43.99387" lon="3.81014">
        <ele>515.81948163618</ele>
        <time>2017-03-20T14:21:10Z</time>
      </trkpt>
      <trkpt lat="43.99397" lon="3.8097">
        <ele>515.27414072981</ele>
        <time>2017-03-20T14:21:35Z</time>
      </trkpt>
      <trkpt lat="43.99409" lon="3.8095">
        <ele>514.99116728455</ele>
        <time>2017-03-20T14:21:55Z</time>
      </trkpt>
      <trkpt lat="43.99434" lon="3.80826">
        <ele>515.32091594692</ele>
        <time>2017-03-20T14:23:20Z</time>
      </trkpt>
      <trkpt lat="43.99433" lon="3.80824">
        <ele>515.32091594692</ele>
        <time>2017-03-20T14:23:25Z</time>
      </trkpt>
      <trkpt lat="43.99433" lon="3.80823">
        <ele>515.32091594692</ele>
        <time>2017-03-20T14:23:30Z</time>
      </trkpt>
      <trkpt lat="43.99431" lon="3.80788">
        <ele>515.90888675496</ele>
        <time>2017-03-20T14:24:02Z</time>
      </trkpt>
      <trkpt lat="43.99432" lon="3.80773">
        <ele>516.6996568325</ele>
        <time>2017-03-20T14:24:03Z</time>
      </trkpt>
      <trkpt lat="43.99436" lon="3.8075">
        <ele>517.61245852096</ele>
        <time>2017-03-20T14:24:27Z</time>
      </trkpt>
      <trkpt lat="43.99438" lon="3.80738">
        <ele>517.61245852096</ele>
        <time>2017-03-20T14:24:27Z</time>
      </trkpt>
      <trkpt lat="43.99474" lon="3.80649">
        <ele>519.45119586999</ele>
        <time>2017-03-20T14:25:33Z</time>
      </trkpt>
      <trkpt lat="43.99482" lon="3.80633">
        <ele>521.45939590851</ele>
        <time>2017-03-20T14:25:52Z</time>
      </trkpt>
      <trkpt lat="43.9949" lon="3.80626">
        <ele>521.45939590851</ele>
        <time>2017-03-20T14:25:54Z</time>
      </trkpt>
      <trkpt lat="43.99514" lon="3.80527">
        <ele>524.14627484295</ele>
        <time>2017-03-20T14:26:59Z</time>
      </trkpt>
      <trkpt lat="43.99528" lon="3.80501">
        <ele>526.94422934523</ele>
        <time>2017-03-20T14:27:27Z</time>
      </trkpt>
      <trkpt lat="43.9953" lon="3.8049">
        <ele>526.94422934523</ele>
        <time>2017-03-20T14:27:27Z</time>
      </trkpt>
      <trkpt lat="43.99561" lon="3.80407">
        <ele>530.04771942799</ele>
        <time>2017-03-20T14:28:33Z</time>
      </trkpt>
      <trkpt lat="43.99565" lon="3.80398">
        <ele>530.04771942799</ele>
        <time>2017-03-20T14:28:33Z</time>
      </trkpt>
      <trkpt lat="43.99583" lon="3.80357">
        <ele>533.39122904463</ele>
        <time>2017-03-20T14:29:06Z</time>
      </trkpt>
      <trkpt lat="43.99602" lon="3.80341">
        <ele>536.79827859926</ele>
        <time>2017-03-20T14:29:29Z</time>
      </trkpt>
      <trkpt lat="43.99603" lon="3.8034">
        <ele>536.79827859926</ele>
        <time>2017-03-20T14:29:30Z</time>
      </trkpt>
      <trkpt lat="43.99675" lon="3.80287">
        <ele>540.6962463043</ele>
        <time>2017-03-20T14:30:35Z</time>
      </trkpt>
      <trkpt lat="43.99784" lon="3.80109">
        <ele>546.21495317283</ele>
        <time>2017-03-20T14:33:03Z</time>
      </trkpt>
      <trkpt lat="43.99785" lon="3.80107">
        <ele>546.21495317283</ele>
        <time>2017-03-20T14:33:05Z</time>
      </trkpt>
      <trkpt lat="43.9979" lon="3.80101">
        <ele>546.21495317283</ele>
        <time>2017-03-20T14:33:17Z</time>
      </trkpt>
      <trkpt lat="43.99785" lon="3.8009">
        <ele>551.7741346429</ele>
        <time>2017-03-20T14:33:50Z</time>
      </trkpt>
      <trkpt lat="43.99789" lon="3.80077">
        <ele>556.93300025689</ele>
        <time>2017-03-20T14:34:00Z</time>
      </trkpt>
      <trkpt lat="43.9982" lon="3.80035">
        <ele>561.81781943145</ele>
        <time>2017-03-20T14:34:52Z</time>
      </trkpt>
      <trkpt lat="43.99826" lon="3.8003">
        <ele>561.81781943145</ele>
        <time>2017-03-20T14:34:52Z</time>
      </trkpt>
      <trkpt lat="43.99837" lon="3.80019">
        <ele>566.46026278279</ele>
        <time>2017-03-20T14:35:06Z</time>
      </trkpt>
      <trkpt lat="43.99883" lon="3.79991">
        <ele>570.80428637212</ele>
        <time>2017-03-20T14:35:49Z</time>
      </trkpt>
      <trkpt lat="43.99886" lon="3.7999">
        <ele>570.80428637212</ele>
        <time>2017-03-20T14:35:49Z</time>
      </trkpt>
      <trkpt lat="43.99892" lon="3.79985">
        <ele>574.92891765252</ele>
        <time>2017-03-20T14:35:56Z</time>
      </trkpt>
      <trkpt lat="43.99958" lon="3.79957">
        <ele>578.67784701829</ele>
        <time>2017-03-20T14:36:54Z</time>
      </trkpt>
      <trkpt lat="43.99959" lon="3.79956">
        <ele>578.67784701829</ele>
        <time>2017-03-20T14:36:55Z</time>
      </trkpt>
      <trkpt lat="44.00005" lon="3.79889">
        <ele>581.86450677998</ele>
        <time>2017-03-20T14:37:48Z</time>
      </trkpt>
      <trkpt lat="44.00005" lon="3.79886">
        <ele>581.86450677998</ele>
        <time>2017-03-20T14:37:50Z</time>
      </trkpt>
      <trkpt lat="44.0001" lon="3.79861">
        <ele>584.53422039894</ele>
        <time>2017-03-20T14:38:17Z</time>
      </trkpt>
      <trkpt lat="44.00041" lon="3.79718">
        <ele>587.82611850352</ele>
        <time>2017-03-20T14:39:52Z</time>
      </trkpt>
      <trkpt lat="44.00044" lon="3.79707">
        <ele>587.82611850352</ele>
        <time>2017-03-20T14:39:52Z</time>
      </trkpt>
      <trkpt lat="44.00008" lon="3.79645">
        <ele>590.22916415076</ele>
        <time>2017-03-20T14:40:40Z</time>
      </trkpt>
      <trkpt lat="43.99968" lon="3.7961">
        <ele>592.36379839083</ele>
        <time>2017-03-20T14:41:22Z</time>
      </trkpt>
      <trkpt lat="43.99966" lon="3.7961">
        <ele>592.36379839083</ele>
        <time>2017-03-20T14:41:30Z</time>
      </trkpt>
      <trkpt lat="43.99945" lon="3.79597">
        <ele>594.20078836917</ele>
        <time>2017-03-20T14:41:50Z</time>
      </trkpt>
      <trkpt lat="43.99931" lon="3.79602">
        <ele>596.17544354109</ele>
        <time>2017-03-20T14:42:05Z</time>
      </trkpt>
      <trkpt lat="43.99931" lon="3.79602">
        <ele>596.17544354109</ele>
        <time>2017-03-20T14:42:10Z</time>
      </trkpt>
      <trkpt lat="43.99927" lon="3.79603">
        <ele>596.17544354109</ele>
        <time>2017-03-20T14:42:25Z</time>
      </trkpt>
      <trkpt lat="43.99923" lon="3.79605">
        <ele>596.17544354109</ele>
        <time>2017-03-20T14:42:33Z</time>
      </trkpt>
      <trkpt lat="43.99916" lon="3.79605">
        <ele>597.86966414306</ele>
        <time>2017-03-20T14:42:37Z</time>
      </trkpt>
      <trkpt lat="43.99897" lon="3.79593">
        <ele>599.76188903966</ele>
        <time>2017-03-20T14:43:17Z</time>
      </trkpt>
      <trkpt lat="43.99891" lon="3.79593">
        <ele>599.76188903966</ele>
        <time>2017-03-20T14:43:29Z</time>
      </trkpt>
      <trkpt lat="43.99876" lon="3.79578">
        <ele>602.00698871115</ele>
        <time>2017-03-20T14:44:00Z</time>
      </trkpt>
      <trkpt lat="43.99855" lon="3.79565">
        <ele>604.38752895201</ele>
        <time>2017-03-20T14:44:26Z</time>
      </trkpt>
      <trkpt lat="43.99829" lon="3.79557">
        <ele>606.50023760232</ele>
        <time>2017-03-20T14:44:50Z</time>
      </trkpt>
      <trkpt lat="43.99789" lon="3.79541">
        <ele>608.72190751505</ele>
        <time>2017-03-20T14:45:33Z</time>
      </trkpt>
      <trkpt lat="43.99776" lon="3.79516">
        <ele>610.92607833914</ele>
        <time>2017-03-20T14:45:56Z</time>
      </trkpt>
      <trkpt lat="43.99775" lon="3.79509">
        <ele>610.92607833914</ele>
        <time>2017-03-20T14:46:00Z</time>
      </trkpt>
      <trkpt lat="43.99773" lon="3.79488">
        <ele>612.70769052745</ele>
        <time>2017-03-20T14:46:21Z</time>
      </trkpt>
      <trkpt lat="43.99774" lon="3.79449">
        <ele>614.24051721687</ele>
        <time>2017-03-20T14:46:42Z</time>
      </trkpt>
      <trkpt lat="43.9976" lon="3.79354">
        <ele>616.09002972174</ele>
        <time>2017-03-20T14:47:42Z</time>
      </trkpt>
      <trkpt lat="43.9976" lon="3.79352">
        <ele>616.09002972174</ele>
        <time>2017-03-20T14:47:43Z</time>
      </trkpt>
      <trkpt lat="43.99762" lon="3.79342">
        <ele>617.68426501261</ele>
        <time>2017-03-20T14:47:49Z</time>
      </trkpt>
      <trkpt lat="43.99758" lon="3.79311">
        <ele>619.12830282926</ele>
        <time>2017-03-20T14:48:14Z</time>
      </trkpt>
      <trkpt lat="43.99753" lon="3.79299">
        <ele>620.33278517079</ele>
        <time>2017-03-20T14:48:14Z</time>
      </trkpt>
      <trkpt lat="43.99755" lon="3.79271">
        <ele>621.4319443811</ele>
        <time>2017-03-20T14:48:41Z</time>
      </trkpt>
      <trkpt lat="43.9976" lon="3.79229">
        <ele>622.70913993629</ele>
        <time>2017-03-20T14:49:15Z</time>
      </trkpt>
      <trkpt lat="43.99748" lon="3.79149">
        <ele>624.54185914346</ele>
        <time>2017-03-20T14:49:52Z</time>
      </trkpt>
      <trkpt lat="43.99745" lon="3.79142">
        <ele>624.54185914346</ele>
        <time>2017-03-20T14:49:56Z</time>
      </trkpt>
      <trkpt lat="43.99761" lon="3.79109">
        <ele>626.45700626068</ele>
        <time>2017-03-20T14:50:22Z</time>
      </trkpt>
      <trkpt lat="43.99761" lon="3.79106">
        <ele>626.45700626068</ele>
        <time>2017-03-20T14:50:25Z</time>
      </trkpt>
      <trkpt lat="43.99764" lon="3.79102">
        <ele>626.45700626068</ele>
        <time>2017-03-20T14:50:30Z</time>
      </trkpt>
      <trkpt lat="43.99798" lon="3.79025">
        <ele>628.39082312603</ele>
        <time>2017-03-20T14:51:40Z</time>
      </trkpt>
      <trkpt lat="43.99796" lon="3.79008">
        <ele>630.28429877898</ele>
        <time>2017-03-20T14:51:55Z</time>
      </trkpt>
      <trkpt lat="43.99825" lon="3.78964">
        <ele>632.18385494938</ele>
        <time>2017-03-20T14:52:40Z</time>
      </trkpt>
      <trkpt lat="43.99834" lon="3.78954">
        <ele>633.72907241292</ele>
        <time>2017-03-20T14:53:03Z</time>
      </trkpt>
      <trkpt lat="43.9984" lon="3.78943">
        <ele>635.0482455622</ele>
        <time>2017-03-20T14:53:05Z</time>
      </trkpt>
      <trkpt lat="43.99878" lon="3.78874">
        <ele>636.65005639634</ele>
        <time>2017-03-20T14:53:55Z</time>
      </trkpt>
      <trkpt lat="43.99922" lon="3.78835">
        <ele>638.87539518041</ele>
        <time>2017-03-20T14:54:42Z</time>
      </trkpt>
      <trkpt lat="43.99925" lon="3.7883">
        <ele>638.87539518041</ele>
        <time>2017-03-20T14:54:47Z</time>
      </trkpt>
      <trkpt lat="43.99937" lon="3.78814">
        <ele>641.21698851586</ele>
        <time>2017-03-20T14:55:18Z</time>
      </trkpt>
      <trkpt lat="43.99948" lon="3.7872">
        <ele>643.66571176435</ele>
        <time>2017-03-20T14:56:19Z</time>
      </trkpt>
      <trkpt lat="43.99906" lon="3.7867">
        <ele>646.08316175013</ele>
        <time>2017-03-20T14:57:05Z</time>
      </trkpt>
      <trkpt lat="43.99866" lon="3.78637">
        <ele>649.04738542598</ele>
        <time>2017-03-20T14:57:52Z</time>
      </trkpt>
      <trkpt lat="43.99861" lon="3.7863">
        <ele>649.04738542598</ele>
        <time>2017-03-20T14:57:52Z</time>
      </trkpt>
      <trkpt lat="43.9986" lon="3.78628">
        <ele>649.04738542598</ele>
        <time>2017-03-20T14:57:55Z</time>
      </trkpt>
      <trkpt lat="43.99853" lon="3.78619">
        <ele>651.78107142708</ele>
        <time>2017-03-20T14:58:11Z</time>
      </trkpt>
      <trkpt lat="43.9985" lon="3.78616">
        <ele>651.78107142708</ele>
        <time>2017-03-20T14:58:11Z</time>
      </trkpt>
      <trkpt lat="43.99841" lon="3.78603">
        <ele>654.4005509353</ele>
        <time>2017-03-20T14:58:23Z</time>
      </trkpt>
      <trkpt lat="43.9984" lon="3.78602">
        <ele>654.4005509353</ele>
        <time>2017-03-20T14:58:24Z</time>
      </trkpt>
      <trkpt lat="43.99821" lon="3.78547">
        <ele>656.63929075217</ele>
        <time>2017-03-20T14:59:01Z</time>
      </trkpt>
      <trkpt lat="43.99806" lon="3.78518">
        <ele>658.78466526463</ele>
        <time>2017-03-20T14:59:35Z</time>
      </trkpt>
      <trkpt lat="43.99805" lon="3.78524">
        <ele>658.78466526463</ele>
        <time>2017-03-20T15:03:20Z</time>
      </trkpt>
      <trkpt lat="43.99805" lon="3.78528">
        <ele>658.78466526463</ele>
        <time>2017-03-20T15:03:25Z</time>
      </trkpt>
      <trkpt lat="43.99805" lon="3.78528">
        <ele>658.78466526463</ele>
        <time>2017-03-20T15:03:30Z</time>
      </trkpt>
      <trkpt lat="43.99806" lon="3.78532">
        <ele>661.0023689481</ele>
        <time>2017-03-20T15:03:35Z</time>
      </trkpt>
      <trkpt lat="43.99806" lon="3.78538">
        <ele>661.0023689481</ele>
        <time>2017-03-20T15:03:40Z</time>
      </trkpt>
      <trkpt lat="43.99806" lon="3.78547">
        <ele>662.84049690674</ele>
        <time>2017-03-20T15:03:47Z</time>
      </trkpt>
      <trkpt lat="43.99805" lon="3.78563">
        <ele>664.37142044851</ele>
        <time>2017-03-20T15:04:00Z</time>
      </trkpt>
      <trkpt lat="43.99805" lon="3.78568">
        <ele>664.37142044851</ele>
        <time>2017-03-20T15:04:05Z</time>
      </trkpt>
      <trkpt lat="43.99803" lon="3.78574">
        <ele>664.37142044851</ele>
        <time>2017-03-20T15:04:10Z</time>
      </trkpt>
      <trkpt lat="43.99802" lon="3.78582">
        <ele>665.74955313775</ele>
        <time>2017-03-20T15:04:15Z</time>
      </trkpt>
      <trkpt lat="43.99761" lon="3.78528">
        <ele>667.70927322064</ele>
        <time>2017-03-20T15:05:41Z</time>
      </trkpt>
      <trkpt lat="43.99749" lon="3.7849">
        <ele>670.0070860251</ele>
        <time>2017-03-20T15:06:14Z</time>
      </trkpt>
      <trkpt lat="43.99747" lon="3.78489">
        <ele>670.0070860251</ele>
        <time>2017-03-20T15:06:15Z</time>
      </trkpt>
      <trkpt lat="43.99751" lon="3.78478">
        <ele>672.09940256736</ele>
        <time>2017-03-20T15:06:28Z</time>
      </trkpt>
      <trkpt lat="43.99751" lon="3.78477">
        <ele>672.09940256736</ele>
        <time>2017-03-20T15:06:30Z</time>
      </trkpt>
      <trkpt lat="43.99746" lon="3.78447">
        <ele>674.50634003299</ele>
        <time>2017-03-20T15:06:55Z</time>
      </trkpt>
      <trkpt lat="43.9974" lon="3.78438">
        <ele>676.61368741887</ele>
        <time>2017-03-20T15:07:03Z</time>
      </trkpt>
      <trkpt lat="43.99733" lon="3.7843">
        <ele>676.61368741887</ele>
        <time>2017-03-20T15:07:19Z</time>
      </trkpt>
      <trkpt lat="43.99736" lon="3.78366">
        <ele>679.27990056469</ele>
        <time>2017-03-20T15:08:15Z</time>
      </trkpt>
      <trkpt lat="43.99724" lon="3.78287">
        <ele>683.68791531389</ele>
        <time>2017-03-20T15:08:57Z</time>
      </trkpt>
      <trkpt lat="43.99716" lon="3.7827">
        <ele>687.94579744223</ele>
        <time>2017-03-20T15:09:29Z</time>
      </trkpt>
      <trkpt lat="43.99695" lon="3.78169">
        <ele>693.14003041295</ele>
        <time>2017-03-20T15:10:20Z</time>
      </trkpt>
      <trkpt lat="43.99694" lon="3.78166">
        <ele>693.14003041295</ele>
        <time>2017-03-20T15:10:25Z</time>
      </trkpt>
      <trkpt lat="43.99691" lon="3.78162">
        <ele>693.14003041295</ele>
        <time>2017-03-20T15:10:30Z</time>
      </trkpt>
      <trkpt lat="43.99688" lon="3.78157">
        <ele>697.7239312728</ele>
        <time>2017-03-20T15:10:35Z</time>
      </trkpt>
      <trkpt lat="43.99685" lon="3.78152">
        <ele>697.7239312728</ele>
        <time>2017-03-20T15:10:40Z</time>
      </trkpt>
      <trkpt lat="43.99681" lon="3.78148">
        <ele>701.69290374631</ele>
        <time>2017-03-20T15:10:45Z</time>
      </trkpt>
      <trkpt lat="43.99677" lon="3.78144">
        <ele>701.69290374631</ele>
        <time>2017-03-20T15:10:50Z</time>
      </trkpt>
      <trkpt lat="43.99672" lon="3.78141">
        <ele>705.07330440917</ele>
        <time>2017-03-20T15:10:55Z</time>
      </trkpt>
      <trkpt lat="43.99665" lon="3.78137">
        <ele>705.07330440917</ele>
        <time>2017-03-20T15:11:00Z</time>
      </trkpt>
      <trkpt lat="43.99661" lon="3.78132">
        <ele>707.84804756274</ele>
        <time>2017-03-20T15:11:05Z</time>
      </trkpt>
      <trkpt lat="43.99655" lon="3.78127">
        <ele>707.84804756274</ele>
        <time>2017-03-20T15:11:10Z</time>
      </trkpt>
      <trkpt lat="43.99645" lon="3.78116">
        <ele>709.71485708866</ele>
        <time>2017-03-20T15:11:33Z</time>
      </trkpt>
      <trkpt lat="43.9964" lon="3.78108">
        <ele>709.71485708866</ele>
        <time>2017-03-20T15:11:33Z</time>
      </trkpt>
      <trkpt lat="43.99631" lon="3.78096">
        <ele>711.00154939555</ele>
        <time>2017-03-20T15:11:52Z</time>
      </trkpt>
      <trkpt lat="43.99628" lon="3.78092">
        <ele>711.00154939555</ele>
        <time>2017-03-20T15:11:52Z</time>
      </trkpt>
      <trkpt lat="43.99623" lon="3.78087">
        <ele>712.07119602356</ele>
        <time>2017-03-20T15:12:04Z</time>
      </trkpt>
      <trkpt lat="43.99621" lon="3.78082">
        <ele>712.07119602356</ele>
        <time>2017-03-20T15:12:07Z</time>
      </trkpt>
      <trkpt lat="43.99609" lon="3.78072">
        <ele>713.04469118524</ele>
        <time>2017-03-20T15:12:20Z</time>
      </trkpt>
      <trkpt lat="43.99614" lon="3.78015">
        <ele>714.97107877806</ele>
        <time>2017-03-20T15:13:08Z</time>
      </trkpt>
      <trkpt lat="43.99622" lon="3.77999">
        <ele>716.55714707326</ele>
        <time>2017-03-20T15:13:27Z</time>
      </trkpt>
      <trkpt lat="43.99626" lon="3.77989">
        <ele>716.55714707326</ele>
        <time>2017-03-20T15:13:27Z</time>
      </trkpt>
      <trkpt lat="43.99628" lon="3.77985">
        <ele>718.59438621605</ele>
        <time>2017-03-20T15:14:09Z</time>
      </trkpt>
      <trkpt lat="43.99627" lon="3.77973">
        <ele>718.59438621605</ele>
        <time>2017-03-20T15:14:40Z</time>
      </trkpt>
      <trkpt lat="43.99627" lon="3.77958">
        <ele>720.80610688323</ele>
        <time>2017-03-20T15:15:00Z</time>
      </trkpt>
      <trkpt lat="43.99622" lon="3.77933">
        <ele>722.69046753417</ele>
        <time>2017-03-20T15:15:25Z</time>
      </trkpt>
      <trkpt lat="43.9962" lon="3.77928">
        <ele>722.69046753417</ele>
        <time>2017-03-20T15:15:25Z</time>
      </trkpt>
      <trkpt lat="43.99621" lon="3.7792">
        <ele>724.35984989577</ele>
        <time>2017-03-20T15:15:42Z</time>
      </trkpt>
      <trkpt lat="43.99621" lon="3.77915">
        <ele>724.35984989577</ele>
        <time>2017-03-20T15:15:42Z</time>
      </trkpt>
      <trkpt lat="43.99607" lon="3.77827">
        <ele>726.48100779461</ele>
        <time>2017-03-20T15:16:57Z</time>
      </trkpt>
      <trkpt lat="43.99604" lon="3.77816">
        <ele>726.48100779461</ele>
        <time>2017-03-20T15:16:57Z</time>
      </trkpt>
      <trkpt lat="43.99603" lon="3.77804">
        <ele>728.50313449378</ele>
        <time>2017-03-20T15:17:12Z</time>
      </trkpt>
      <trkpt lat="43.99596" lon="3.77763">
        <ele>730.63670154886</ele>
        <time>2017-03-20T15:17:30Z</time>
      </trkpt>
      <trkpt lat="43.99595" lon="3.77761">
        <ele>730.63670154886</ele>
        <time>2017-03-20T15:17:30Z</time>
      </trkpt>
      <trkpt lat="43.99594" lon="3.77756">
        <ele>730.63670154886</ele>
        <time>2017-03-20T15:17:35Z</time>
      </trkpt>
      <trkpt lat="43.99592" lon="3.77747">
        <ele>732.81698648498</ele>
        <time>2017-03-20T15:17:40Z</time>
      </trkpt>
      <trkpt lat="43.9959" lon="3.7774">
        <ele>732.81698648498</ele>
        <time>2017-03-20T15:17:50Z</time>
      </trkpt>
      <trkpt lat="43.99599" lon="3.7769">
        <ele>734.8685789875</ele>
        <time>2017-03-20T15:18:38Z</time>
      </trkpt>
      <trkpt lat="43.99599" lon="3.77666">
        <ele>736.98956912148</ele>
        <time>2017-03-20T15:18:45Z</time>
      </trkpt>
      <trkpt lat="43.99599" lon="3.77657">
        <ele>736.98956912148</ele>
        <time>2017-03-20T15:18:50Z</time>
      </trkpt>
      <trkpt lat="43.99604" lon="3.77578">
        <ele>739.79560979619</ele>
        <time>2017-03-20T15:19:43Z</time>
      </trkpt>
      <trkpt lat="43.99612" lon="3.77538">
        <ele>743.19227258355</ele>
        <time>2017-03-20T15:20:01Z</time>
      </trkpt>
      <trkpt lat="43.99637" lon="3.77466">
        <ele>747.69565876263</ele>
        <time>2017-03-20T15:20:52Z</time>
      </trkpt>
      <trkpt lat="43.9964" lon="3.77439">
        <ele>752.2965001018</ele>
        <time>2017-03-20T15:21:15Z</time>
      </trkpt>
      <trkpt lat="43.99657" lon="3.77412">
        <ele>757.12582441273</ele>
        <time>2017-03-20T15:22:00Z</time>
      </trkpt>
      <trkpt lat="43.99663" lon="3.77392">
        <ele>761.5550374104</ele>
        <time>2017-03-20T15:22:48Z</time>
      </trkpt>
      <trkpt lat="43.99655" lon="3.77403">
        <ele>764.93082412979</ele>
        <time>2017-03-20T15:24:19Z</time>
      </trkpt>
      <trkpt lat="43.9965" lon="3.77402">
        <ele>764.93082412979</ele>
        <time>2017-03-20T15:24:35Z</time>
      </trkpt>
      <trkpt lat="43.99646" lon="3.77403">
        <ele>764.93082412979</ele>
        <time>2017-03-20T15:24:40Z</time>
      </trkpt>
      <trkpt lat="43.99646" lon="3.77403">
        <ele>767.94786440346</ele>
        <time>2017-03-20T15:24:45Z</time>
      </trkpt>
      <trkpt lat="43.99639" lon="3.77406">
        <ele>767.94786440346</ele>
        <time>2017-03-20T15:25:00Z</time>
      </trkpt>
      <trkpt lat="43.99634" lon="3.77408">
        <ele>770.44384383221</ele>
        <time>2017-03-20T15:25:05Z</time>
      </trkpt>
      <trkpt lat="43.99629" lon="3.77412">
        <ele>770.44384383221</ele>
        <time>2017-03-20T15:25:10Z</time>
      </trkpt>
      <trkpt lat="43.99623" lon="3.77416">
        <ele>772.44281950075</ele>
        <time>2017-03-20T15:25:15Z</time>
      </trkpt>
      <trkpt lat="43.99617" lon="3.77418">
        <ele>772.44281950075</ele>
        <time>2017-03-20T15:25:20Z</time>
      </trkpt>
      <trkpt lat="43.99611" lon="3.77422">
        <ele>773.98293476483</ele>
        <time>2017-03-20T15:25:25Z</time>
      </trkpt>
      <trkpt lat="43.99583" lon="3.77454">
        <ele>775.1152691156</ele>
        <time>2017-03-20T15:26:20Z</time>
      </trkpt>
      <trkpt lat="43.99567" lon="3.77472">
        <ele>776.09007781304</ele>
        <time>2017-03-20T15:26:21Z</time>
      </trkpt>
      <trkpt lat="43.99566" lon="3.77473">
        <ele>776.09007781304</ele>
        <time>2017-03-20T15:26:22Z</time>
      </trkpt>
      <trkpt lat="43.99539" lon="3.77558">
        <ele>777.84583577886</ele>
        <time>2017-03-20T15:27:20Z</time>
      </trkpt>
      <trkpt lat="43.99537" lon="3.77562">
        <ele>777.84583577886</ele>
        <time>2017-03-20T15:27:25Z</time>
      </trkpt>
      <trkpt lat="43.99532" lon="3.7759">
        <ele>779.73672527932</ele>
        <time>2017-03-20T15:27:46Z</time>
      </trkpt>
      <trkpt lat="43.99526" lon="3.77636">
        <ele>782.30246581342</ele>
        <time>2017-03-20T15:28:18Z</time>
      </trkpt>
      <trkpt lat="43.99526" lon="3.77664">
        <ele>785.49360630309</ele>
        <time>2017-03-20T15:28:37Z</time>
      </trkpt>
      <trkpt lat="43.9952" lon="3.77775">
        <ele>791.56834973408</ele>
        <time>2017-03-20T15:30:00Z</time>
      </trkpt>
      <trkpt lat="43.99512" lon="3.77822">
        <ele>797.92731926734</ele>
        <time>2017-03-20T15:30:33Z</time>
      </trkpt>
      <trkpt lat="43.9951" lon="3.77827">
        <ele>797.92731926734</ele>
        <time>2017-03-20T15:30:36Z</time>
      </trkpt>
      <trkpt lat="43.99514" lon="3.77841">
        <ele>804.13563994272</ele>
        <time>2017-03-20T15:30:48Z</time>
      </trkpt>
      <trkpt lat="43.99515" lon="3.77843">
        <ele>804.13563994272</ele>
        <time>2017-03-20T15:30:56Z</time>
      </trkpt>
      <trkpt lat="43.99504" lon="3.77884">
        <ele>810.74199130018</ele>
        <time>2017-03-20T15:31:26Z</time>
      </trkpt>
      <trkpt lat="43.99504" lon="3.77887">
        <ele>810.74199130018</ele>
        <time>2017-03-20T15:31:30Z</time>
      </trkpt>
      <trkpt lat="43.99502" lon="3.77931">
        <ele>817.31698813065</ele>
        <time>2017-03-20T15:32:08Z</time>
      </trkpt>
      <trkpt lat="43.995" lon="3.77943">
        <ele>824.22677152948</ele>
        <time>2017-03-20T15:32:08Z</time>
      </trkpt>
      <trkpt lat="43.99496" lon="3.77966">
        <ele>830.94511164481</ele>
        <time>2017-03-20T15:32:33Z</time>
      </trkpt>
      <trkpt lat="43.99493" lon="3.77976">
        <ele>830.94511164481</ele>
        <time>2017-03-20T15:32:33Z</time>
      </trkpt>
      <trkpt lat="43.99491" lon="3.77995">
        <ele>837.50392744049</ele>
        <time>2017-03-20T15:32:50Z</time>
      </trkpt>
      <trkpt lat="43.99491" lon="3.78002">
        <ele>837.50392744049</ele>
        <time>2017-03-20T15:32:55Z</time>
      </trkpt>
      <trkpt lat="43.99491" lon="3.78003">
        <ele>837.50392744049</ele>
        <time>2017-03-20T15:33:00Z</time>
      </trkpt>
      <trkpt lat="43.99495" lon="3.78002">
        <ele>843.21285942154</ele>
        <time>2017-03-20T15:33:10Z</time>
      </trkpt>
      <trkpt lat="43.99494" lon="3.78007">
        <ele>843.21285942154</ele>
        <time>2017-03-20T15:33:15Z</time>
      </trkpt>
      <trkpt lat="43.99492" lon="3.7801">
        <ele>843.21285942154</ele>
        <time>2017-03-20T15:33:20Z</time>
      </trkpt>
      <trkpt lat="43.99488" lon="3.78014">
        <ele>847.91040153719</ele>
        <time>2017-03-20T15:33:25Z</time>
      </trkpt>
      <trkpt lat="43.99483" lon="3.78019">
        <ele>847.91040153719</ele>
        <time>2017-03-20T15:33:30Z</time>
      </trkpt>
      <trkpt lat="43.99481" lon="3.78026">
        <ele>851.81022372365</ele>
        <time>2017-03-20T15:33:35Z</time>
      </trkpt>
      <trkpt lat="43.99478" lon="3.78034">
        <ele>851.81022372365</ele>
        <time>2017-03-20T15:33:40Z</time>
      </trkpt>
      <trkpt lat="43.99474" lon="3.7804">
        <ele>854.91097877612</ele>
        <time>2017-03-20T15:33:45Z</time>
      </trkpt>
      <trkpt lat="43.99471" lon="3.7805">
        <ele>854.91097877612</ele>
        <time>2017-03-20T15:33:50Z</time>
      </trkpt>
      <trkpt lat="43.99468" lon="3.78054">
        <ele>857.30031581119</ele>
        <time>2017-03-20T15:33:55Z</time>
      </trkpt>
      <trkpt lat="43.99458" lon="3.78064">
        <ele>858.83103747729</ele>
        <time>2017-03-20T15:34:00Z</time>
      </trkpt>
      <trkpt lat="43.99456" lon="3.78066">
        <ele>858.83103747729</ele>
        <time>2017-03-20T15:34:05Z</time>
      </trkpt>
      <trkpt lat="43.99451" lon="3.78075">
        <ele>859.87371125001</ele>
        <time>2017-03-20T15:34:20Z</time>
      </trkpt>
      <trkpt lat="43.99447" lon="3.78083">
        <ele>859.87371125001</ele>
        <time>2017-03-20T15:34:25Z</time>
      </trkpt>
      <trkpt lat="43.99444" lon="3.7809">
        <ele>860.55701460908</ele>
        <time>2017-03-20T15:34:30Z</time>
      </trkpt>
      <trkpt lat="43.99439" lon="3.781">
        <ele>860.55701460908</ele>
        <time>2017-03-20T15:34:35Z</time>
      </trkpt>
      <trkpt lat="43.99435" lon="3.78109">
        <ele>860.95804865755</ele>
        <time>2017-03-20T15:34:40Z</time>
      </trkpt>
      <trkpt lat="43.9943" lon="3.78118">
        <ele>860.95804865755</ele>
        <time>2017-03-20T15:34:45Z</time>
      </trkpt>
      <trkpt lat="43.99426" lon="3.78127">
        <ele>861.16352539146</ele>
        <time>2017-03-20T15:34:50Z</time>
      </trkpt>
      <trkpt lat="43.99424" lon="3.7813">
        <ele>861.16352539146</ele>
        <time>2017-03-20T15:34:55Z</time>
      </trkpt>
      <trkpt lat="43.99422" lon="3.78133">
        <ele>861.16352539146</ele>
        <time>2017-03-20T15:35:00Z</time>
      </trkpt>
      <trkpt lat="43.99421" lon="3.7814">
        <ele>861.35525526003</ele>
        <time>2017-03-20T15:35:05Z</time>
      </trkpt>
      <trkpt lat="43.9942" lon="3.78145">
        <ele>861.35525526003</ele>
        <time>2017-03-20T15:35:10Z</time>
      </trkpt>
      <trkpt lat="43.9942" lon="3.78146">
        <ele>861.35525526003</ele>
        <time>2017-03-20T15:35:15Z</time>
      </trkpt>
      <trkpt lat="43.99417" lon="3.78155">
        <ele>861.48557738777</ele>
        <time>2017-03-20T15:35:25Z</time>
      </trkpt>
      <trkpt lat="43.9942" lon="3.78155">
        <ele>861.48557738777</ele>
        <time>2017-03-20T15:35:30Z</time>
      </trkpt>
      <trkpt lat="43.99423" lon="3.78158">
        <ele>861.48557738777</ele>
        <time>2017-03-20T15:35:35Z</time>
      </trkpt>
      <trkpt lat="43.99425" lon="3.78161">
        <ele>861.45284411491</ele>
        <time>2017-03-20T15:35:40Z</time>
      </trkpt>
      <trkpt lat="43.9943" lon="3.78168">
        <ele>861.45284411491</ele>
        <time>2017-03-20T15:35:45Z</time>
      </trkpt>
      <trkpt lat="43.99434" lon="3.78175">
        <ele>861.01917788079</ele>
        <time>2017-03-20T15:35:50Z</time>
      </trkpt>
      <trkpt lat="43.9944" lon="3.78182">
        <ele>861.01917788079</ele>
        <time>2017-03-20T15:35:55Z</time>
      </trkpt>
      <trkpt lat="43.99444" lon="3.78189">
        <ele>860.19580806454</ele>
        <time>2017-03-20T15:36:03Z</time>
      </trkpt>
      <trkpt lat="43.99457" lon="3.78229">
        <ele>858.64826793659</ele>
        <time>2017-03-20T15:36:33Z</time>
      </trkpt>
      <trkpt lat="43.99459" lon="3.78237">
        <ele>858.64826793659</ele>
        <time>2017-03-20T15:36:38Z</time>
      </trkpt>
      <trkpt lat="43.99468" lon="3.78257">
        <ele>856.81794392044</ele>
        <time>2017-03-20T15:36:56Z</time>
      </trkpt>
      <trkpt lat="43.99471" lon="3.78274">
        <ele>854.88385839526</ele>
        <time>2017-03-20T15:37:17Z</time>
      </trkpt>
      <trkpt lat="43.99467" lon="3.78281">
        <ele>854.88385839526</ele>
        <time>2017-03-20T15:37:17Z</time>
      </trkpt>
      <trkpt lat="43.99475" lon="3.78262">
        <ele>853.25697866102</ele>
        <time>2017-03-20T15:37:37Z</time>
      </trkpt>
      <trkpt lat="43.99457" lon="3.78249">
        <ele>852.02878751499</ele>
        <time>2017-03-20T15:38:00Z</time>
      </trkpt>
      <trkpt lat="43.99439" lon="3.78232">
        <ele>850.79271667623</ele>
        <time>2017-03-20T15:38:17Z</time>
      </trkpt>
      <trkpt lat="43.99406" lon="3.782">
        <ele>849.82033287151</ele>
        <time>2017-03-20T15:39:00Z</time>
      </trkpt>
      <trkpt lat="43.99384" lon="3.78195">
        <ele>849.16048984173</ele>
        <time>2017-03-20T15:39:15Z</time>
      </trkpt>
      <trkpt lat="43.99359" lon="3.7819">
        <ele>848.48260677465</ele>
        <time>2017-03-20T15:39:30Z</time>
      </trkpt>
      <trkpt lat="43.99353" lon="3.78186">
        <ele>848.48260677465</ele>
        <time>2017-03-20T15:39:35Z</time>
      </trkpt>
      <trkpt lat="43.9934" lon="3.78177">
        <ele>848.04218308932</ele>
        <time>2017-03-20T15:39:49Z</time>
      </trkpt>
      <trkpt lat="43.9934" lon="3.78176">
        <ele>848.04218308932</ele>
        <time>2017-03-20T15:39:57Z</time>
      </trkpt>
      <trkpt lat="43.9934" lon="3.7818">
        <ele>848.04218308932</ele>
        <time>2017-03-20T15:40:00Z</time>
      </trkpt>
      <trkpt lat="43.99323" lon="3.78176">
        <ele>848.86760319023</ele>
        <time>2017-03-20T15:40:50Z</time>
      </trkpt>
      <trkpt lat="43.9932" lon="3.78181">
        <ele>848.86760319023</ele>
        <time>2017-03-20T15:40:55Z</time>
      </trkpt>
      <trkpt lat="43.99318" lon="3.78185">
        <ele>848.86760319023</ele>
        <time>2017-03-20T15:41:00Z</time>
      </trkpt>
      <trkpt lat="43.99316" lon="3.78191">
        <ele>849.70296407637</ele>
        <time>2017-03-20T15:41:05Z</time>
      </trkpt>
      <trkpt lat="43.99311" lon="3.78201">
        <ele>849.70296407637</ele>
        <time>2017-03-20T15:41:10Z</time>
      </trkpt>
      <trkpt lat="43.9931" lon="3.78206">
        <ele>850.50837320579</ele>
        <time>2017-03-20T15:41:22Z</time>
      </trkpt>
      <trkpt lat="43.99303" lon="3.7821">
        <ele>850.50837320579</ele>
        <time>2017-03-20T15:41:22Z</time>
      </trkpt>
      <trkpt lat="43.99299" lon="3.78209">
        <ele>851.27549575364</ele>
        <time>2017-03-20T15:41:37Z</time>
      </trkpt>
      <trkpt lat="43.99292" lon="3.78206">
        <ele>851.27549575364</ele>
        <time>2017-03-20T15:41:37Z</time>
      </trkpt>
      <trkpt lat="43.99285" lon="3.78198">
        <ele>852.14055840169</ele>
        <time>2017-03-20T15:41:51Z</time>
      </trkpt>
      <trkpt lat="43.9928" lon="3.78189">
        <ele>852.14055840169</ele>
        <time>2017-03-20T15:41:53Z</time>
      </trkpt>
      <trkpt lat="43.99267" lon="3.78172">
        <ele>853.27248019547</ele>
        <time>2017-03-20T15:42:08Z</time>
      </trkpt>
      <trkpt lat="43.99266" lon="3.78169">
        <ele>853.27248019547</ele>
        <time>2017-03-20T15:42:10Z</time>
      </trkpt>
      <trkpt lat="43.99265" lon="3.78162">
        <ele>853.27248019547</ele>
        <time>2017-03-20T15:42:15Z</time>
      </trkpt>
      <trkpt lat="43.99263" lon="3.78156">
        <ele>854.39444092708</ele>
        <time>2017-03-20T15:42:20Z</time>
      </trkpt>
      <trkpt lat="43.99263" lon="3.78152">
        <ele>854.39444092708</ele>
        <time>2017-03-20T15:42:25Z</time>
      </trkpt>
      <trkpt lat="43.99263" lon="3.78147">
        <ele>854.39444092708</ele>
        <time>2017-03-20T15:42:30Z</time>
      </trkpt>
      <trkpt lat="43.99264" lon="3.78141">
        <ele>855.53796859077</ele>
        <time>2017-03-20T15:42:35Z</time>
      </trkpt>
      <trkpt lat="43.99263" lon="3.7813">
        <ele>855.53796859077</ele>
        <time>2017-03-20T15:42:40Z</time>
      </trkpt>
      <trkpt lat="43.99266" lon="3.78122">
        <ele>856.58787804275</ele>
        <time>2017-03-20T15:42:45Z</time>
      </trkpt>
      <trkpt lat="43.9927" lon="3.78115">
        <ele>856.58787804275</ele>
        <time>2017-03-20T15:42:50Z</time>
      </trkpt>
      <trkpt lat="43.99271" lon="3.78111">
        <ele>857.61042784437</ele>
        <time>2017-03-20T15:42:55Z</time>
      </trkpt>
      <trkpt lat="43.99273" lon="3.78105">
        <ele>857.61042784437</ele>
        <time>2017-03-20T15:43:00Z</time>
      </trkpt>
      <trkpt lat="43.99276" lon="3.78097">
        <ele>858.62365011683</ele>
        <time>2017-03-20T15:43:05Z</time>
      </trkpt>
      <trkpt lat="43.99274" lon="3.78086">
        <ele>858.62365011683</ele>
        <time>2017-03-20T15:43:12Z</time>
      </trkpt>
      <trkpt lat="43.9927" lon="3.78079">
        <ele>859.71614247054</ele>
        <time>2017-03-20T15:43:17Z</time>
      </trkpt>
      <trkpt lat="43.99268" lon="3.78069">
        <ele>859.71614247054</ele>
        <time>2017-03-20T15:43:25Z</time>
      </trkpt>
      <trkpt lat="43.99267" lon="3.78062">
        <ele>860.85430187655</ele>
        <time>2017-03-20T15:43:30Z</time>
      </trkpt>
      <trkpt lat="43.99266" lon="3.78058">
        <ele>860.85430187655</ele>
        <time>2017-03-20T15:43:35Z</time>
      </trkpt>
      <trkpt lat="43.99265" lon="3.78054">
        <ele>860.85430187655</ele>
        <time>2017-03-20T15:43:40Z</time>
      </trkpt>
      <trkpt lat="43.99261" lon="3.78047">
        <ele>861.93463950482</ele>
        <time>2017-03-20T15:43:45Z</time>
      </trkpt>
      <trkpt lat="43.99258" lon="3.78042">
        <ele>861.93463950482</ele>
        <time>2017-03-20T15:43:50Z</time>
      </trkpt>
      <trkpt lat="43.99254" lon="3.78034">
        <ele>862.89009272734</ele>
        <time>2017-03-20T15:43:55Z</time>
      </trkpt>
      <trkpt lat="43.9925" lon="3.78029">
        <ele>862.89009272734</ele>
        <time>2017-03-20T15:44:00Z</time>
      </trkpt>
      <trkpt lat="43.99247" lon="3.78023">
        <ele>863.7019579957</ele>
        <time>2017-03-20T15:44:05Z</time>
      </trkpt>
      <trkpt lat="43.99246" lon="3.78014">
        <ele>863.7019579957</ele>
        <time>2017-03-20T15:44:10Z</time>
      </trkpt>
      <trkpt lat="43.99244" lon="3.78006">
        <ele>864.36757710227</ele>
        <time>2017-03-20T15:44:15Z</time>
      </trkpt>
      <trkpt lat="43.99243" lon="3.78001">
        <ele>864.36757710227</ele>
        <time>2017-03-20T15:44:20Z</time>
      </trkpt>
      <trkpt lat="43.99241" lon="3.77996">
        <ele>864.36757710227</ele>
        <time>2017-03-20T15:44:25Z</time>
      </trkpt>
      <trkpt lat="43.99237" lon="3.77989">
        <ele>864.91358428723</ele>
        <time>2017-03-20T15:44:33Z</time>
      </trkpt>
      <trkpt lat="43.99234" lon="3.77964">
        <ele>865.03340721511</ele>
        <time>2017-03-20T15:44:50Z</time>
      </trkpt>
      <trkpt lat="43.99221" lon="3.77956">
        <ele>864.99168608612</ele>
        <time>2017-03-20T15:45:14Z</time>
      </trkpt>
      <trkpt lat="43.99218" lon="3.77965">
        <ele>864.99168608612</ele>
        <time>2017-03-20T15:45:22Z</time>
      </trkpt>
      <trkpt lat="43.99216" lon="3.77981">
        <ele>864.71690527199</ele>
        <time>2017-03-20T15:45:44Z</time>
      </trkpt>
      <trkpt lat="43.99216" lon="3.77983">
        <ele>864.71690527199</ele>
        <time>2017-03-20T15:45:45Z</time>
      </trkpt>
      <trkpt lat="43.99215" lon="3.77986">
        <ele>864.71690527199</ele>
        <time>2017-03-20T15:45:50Z</time>
      </trkpt>
      <trkpt lat="43.99214" lon="3.77994">
        <ele>864.38832173825</ele>
        <time>2017-03-20T15:45:55Z</time>
      </trkpt>
      <trkpt lat="43.99212" lon="3.78004">
        <ele>864.38832173825</ele>
        <time>2017-03-20T15:46:00Z</time>
      </trkpt>
      <trkpt lat="43.99212" lon="3.78015">
        <ele>864.07117311755</ele>
        <time>2017-03-20T15:46:05Z</time>
      </trkpt>
      <trkpt lat="43.9921" lon="3.78019">
        <ele>864.07117311755</ele>
        <time>2017-03-20T15:46:10Z</time>
      </trkpt>
      <trkpt lat="43.99208" lon="3.78027">
        <ele>863.71045829504</ele>
        <time>2017-03-20T15:46:15Z</time>
      </trkpt>
      <trkpt lat="43.99206" lon="3.78031">
        <ele>863.71045829504</ele>
        <time>2017-03-20T15:46:20Z</time>
      </trkpt>
      <trkpt lat="43.99206" lon="3.78036">
        <ele>863.71045829504</ele>
        <time>2017-03-20T15:46:25Z</time>
      </trkpt>
      <trkpt lat="43.99207" lon="3.7804">
        <ele>863.312856629</ele>
        <time>2017-03-20T15:46:30Z</time>
      </trkpt>
      <trkpt lat="43.99204" lon="3.78045">
        <ele>863.312856629</ele>
        <time>2017-03-20T15:46:35Z</time>
      </trkpt>
      <trkpt lat="43.99197" lon="3.78049">
        <ele>862.89894396298</ele>
        <time>2017-03-20T15:46:40Z</time>
      </trkpt>
      <trkpt lat="43.99194" lon="3.78053">
        <ele>862.89894396298</ele>
        <time>2017-03-20T15:46:45Z</time>
      </trkpt>
      <trkpt lat="43.99184" lon="3.78065">
        <ele>862.4588800768</ele>
        <time>2017-03-20T15:46:52Z</time>
      </trkpt>
      <trkpt lat="43.9918" lon="3.78081">
        <ele>862.05554810363</ele>
        <time>2017-03-20T15:47:01Z</time>
      </trkpt>
      <trkpt lat="43.99179" lon="3.78081">
        <ele>862.05554810363</ele>
        <time>2017-03-20T15:47:05Z</time>
      </trkpt>
      <trkpt lat="43.99177" lon="3.78082">
        <ele>862.05554810363</ele>
        <time>2017-03-20T15:47:10Z</time>
      </trkpt>
      <trkpt lat="43.9918" lon="3.7808">
        <ele>862.05554810363</ele>
        <time>2017-03-20T15:47:40Z</time>
      </trkpt>
      <trkpt lat="43.99185" lon="3.78051">
        <ele>861.7325693272</ele>
        <time>2017-03-20T15:48:05Z</time>
      </trkpt>
      <trkpt lat="43.99188" lon="3.7802">
        <ele>861.44354085722</ele>
        <time>2017-03-20T15:48:19Z</time>
      </trkpt>
      <trkpt lat="43.99188" lon="3.78018">
        <ele>861.44354085722</ele>
        <time>2017-03-20T15:48:22Z</time>
      </trkpt>
      <trkpt lat="43.99189" lon="3.77985">
        <ele>861.21730256773</ele>
        <time>2017-03-20T15:48:48Z</time>
      </trkpt>
      <trkpt lat="43.99188" lon="3.77978">
        <ele>861.21730256773</ele>
        <time>2017-03-20T15:48:48Z</time>
      </trkpt>
      <trkpt lat="43.99186" lon="3.77957">
        <ele>860.95057520126</ele>
        <time>2017-03-20T15:49:02Z</time>
      </trkpt>
      <trkpt lat="43.9917" lon="3.77882">
        <ele>860.5188354327</ele>
        <time>2017-03-20T15:49:49Z</time>
      </trkpt>
      <trkpt lat="43.99147" lon="3.77812">
        <ele>858.23623527028</ele>
        <time>2017-03-20T15:50:31Z</time>
      </trkpt>
      <trkpt lat="43.99137" lon="3.77803">
        <ele>855.78833463672</ele>
        <time>2017-03-20T15:50:50Z</time>
      </trkpt>
      <trkpt lat="43.99127" lon="3.77733">
        <ele>852.97904570403</ele>
        <time>2017-03-20T15:51:41Z</time>
      </trkpt>
      <trkpt lat="43.99122" lon="3.77712">
        <ele>850.26164147221</ele>
        <time>2017-03-20T15:51:54Z</time>
      </trkpt>
      <trkpt lat="43.99122" lon="3.77711">
        <ele>850.26164147221</ele>
        <time>2017-03-20T15:51:55Z</time>
      </trkpt>
      <trkpt lat="43.99118" lon="3.77694">
        <ele>847.65216858636</ele>
        <time>2017-03-20T15:52:05Z</time>
      </trkpt>
      <trkpt lat="43.99036" lon="3.77547">
        <ele>843.92566135663</ele>
        <time>2017-03-20T15:54:05Z</time>
      </trkpt>
      <trkpt lat="43.98959" lon="3.77544">
        <ele>839.42001622783</ele>
        <time>2017-03-20T15:55:08Z</time>
      </trkpt>
      <trkpt lat="43.98956" lon="3.77543">
        <ele>839.42001622783</ele>
        <time>2017-03-20T15:55:13Z</time>
      </trkpt>
      <trkpt lat="43.98902" lon="3.77536">
        <ele>833.96030632076</ele>
        <time>2017-03-20T15:55:58Z</time>
      </trkpt>
      <trkpt lat="43.9888" lon="3.77507">
        <ele>828.61184526863</ele>
        <time>2017-03-20T15:56:32Z</time>
      </trkpt>
      <trkpt lat="43.98826" lon="3.77449">
        <ele>822.60296504907</ele>
        <time>2017-03-20T15:57:21Z</time>
      </trkpt>
      <trkpt lat="43.988" lon="3.77439">
        <ele>816.73342196816</ele>
        <time>2017-03-20T15:57:48Z</time>
      </trkpt>
      <trkpt lat="43.98796" lon="3.77435">
        <ele>816.73342196816</ele>
        <time>2017-03-20T15:57:50Z</time>
      </trkpt>
      <trkpt lat="43.98796" lon="3.77435">
        <ele>816.73342196816</ele>
        <time>2017-03-20T15:57:55Z</time>
      </trkpt>
      <trkpt lat="43.98793" lon="3.77429">
        <ele>811.54177023089</ele>
        <time>2017-03-20T15:58:20Z</time>
      </trkpt>
      <trkpt lat="43.98788" lon="3.77429">
        <ele>811.54177023089</ele>
        <time>2017-03-20T15:58:25Z</time>
      </trkpt>
      <trkpt lat="43.98782" lon="3.77427">
        <ele>806.86186275262</ele>
        <time>2017-03-20T15:58:30Z</time>
      </trkpt>
      <trkpt lat="43.98776" lon="3.77425">
        <ele>806.86186275262</ele>
        <time>2017-03-20T15:58:35Z</time>
      </trkpt>
      <trkpt lat="43.98771" lon="3.77426">
        <ele>802.61003548698</ele>
        <time>2017-03-20T15:58:40Z</time>
      </trkpt>
      <trkpt lat="43.98765" lon="3.77427">
        <ele>802.61003548698</ele>
        <time>2017-03-20T15:58:45Z</time>
      </trkpt>
      <trkpt lat="43.98758" lon="3.77428">
        <ele>798.7648623042</ele>
        <time>2017-03-20T15:58:50Z</time>
      </trkpt>
      <trkpt lat="43.98751" lon="3.77429">
        <ele>798.7648623042</ele>
        <time>2017-03-20T15:58:55Z</time>
      </trkpt>
      <trkpt lat="43.98747" lon="3.77429">
        <ele>795.3338172313</ele>
        <time>2017-03-20T15:59:04Z</time>
      </trkpt>
      <trkpt lat="43.98687" lon="3.77452">
        <ele>791.94761993189</ele>
        <time>2017-03-20T16:00:00Z</time>
      </trkpt>
      <trkpt lat="43.98672" lon="3.77462">
        <ele>789.20036455167</ele>
        <time>2017-03-20T16:00:15Z</time>
      </trkpt>
      <trkpt lat="43.98668" lon="3.77466">
        <ele>789.20036455167</ele>
        <time>2017-03-20T16:00:20Z</time>
      </trkpt>
      <trkpt lat="43.9865" lon="3.77487">
        <ele>787.06392612878</ele>
        <time>2017-03-20T16:00:36Z</time>
      </trkpt>
      <trkpt lat="43.98649" lon="3.77488">
        <ele>787.06392612878</ele>
        <time>2017-03-20T16:00:36Z</time>
      </trkpt>
      <trkpt lat="43.98587" lon="3.77519">
        <ele>785.56784989417</ele>
        <time>2017-03-20T16:01:30Z</time>
      </trkpt>
      <trkpt lat="43.98542" lon="3.77535">
        <ele>784.03125955222</ele>
        <time>2017-03-20T16:02:00Z</time>
      </trkpt>
      <trkpt lat="43.9842" lon="3.77506">
        <ele>780.56934848005</ele>
        <time>2017-03-20T16:03:51Z</time>
      </trkpt>
      <trkpt lat="43.98419" lon="3.77503">
        <ele>780.56934848005</ele>
        <time>2017-03-20T16:04:00Z</time>
      </trkpt>
      <trkpt lat="43.98415" lon="3.77498">
        <ele>780.56934848005</ele>
        <time>2017-03-20T16:04:40Z</time>
      </trkpt>
      <trkpt lat="43.98401" lon="3.77512">
        <ele>778.08127108513</ele>
        <time>2017-03-20T16:05:27Z</time>
      </trkpt>
      <trkpt lat="43.98378" lon="3.77524">
        <ele>775.95007305722</ele>
        <time>2017-03-20T16:05:40Z</time>
      </trkpt>
      <trkpt lat="43.98374" lon="3.77526">
        <ele>775.95007305722</ele>
        <time>2017-03-20T16:05:45Z</time>
      </trkpt>
      <trkpt lat="43.9837" lon="3.77529">
        <ele>775.95007305722</ele>
        <time>2017-03-20T16:05:50Z</time>
      </trkpt>
      <trkpt lat="43.98367" lon="3.77534">
        <ele>774.0207955077</ele>
        <time>2017-03-20T16:05:55Z</time>
      </trkpt>
      <trkpt lat="43.98362" lon="3.77539">
        <ele>774.0207955077</ele>
        <time>2017-03-20T16:06:00Z</time>
      </trkpt>
      <trkpt lat="43.98357" lon="3.77544">
        <ele>772.26435264747</ele>
        <time>2017-03-20T16:06:05Z</time>
      </trkpt>
      <trkpt lat="43.98353" lon="3.77547">
        <ele>772.26435264747</ele>
        <time>2017-03-20T16:06:10Z</time>
      </trkpt>
      <trkpt lat="43.98349" lon="3.77551">
        <ele>770.84043960531</ele>
        <time>2017-03-20T16:06:15Z</time>
      </trkpt>
      <trkpt lat="43.98343" lon="3.77553">
        <ele>770.84043960531</ele>
        <time>2017-03-20T16:06:20Z</time>
      </trkpt>
      <trkpt lat="43.98337" lon="3.77552">
        <ele>769.53561270852</ele>
        <time>2017-03-20T16:06:25Z</time>
      </trkpt>
      <trkpt lat="43.9833" lon="3.7755">
        <ele>769.53561270852</ele>
        <time>2017-03-20T16:06:30Z</time>
      </trkpt>
      <trkpt lat="43.98324" lon="3.77552">
        <ele>768.29570710113</ele>
        <time>2017-03-20T16:06:35Z</time>
      </trkpt>
      <trkpt lat="43.98315" lon="3.77553">
        <ele>768.29570710113</ele>
        <time>2017-03-20T16:06:42Z</time>
      </trkpt>
      <trkpt lat="43.98313" lon="3.77554">
        <ele>767.28636365718</ele>
        <time>2017-03-20T16:06:45Z</time>
      </trkpt>
      <trkpt lat="43.98313" lon="3.77554">
        <ele>767.28636365718</ele>
        <time>2017-03-20T16:06:50Z</time>
      </trkpt>
      <trkpt lat="43.9831" lon="3.77555">
        <ele>767.28636365718</ele>
        <time>2017-03-20T16:07:05Z</time>
      </trkpt>
      <trkpt lat="43.98303" lon="3.77556">
        <ele>766.70350485244</ele>
        <time>2017-03-20T16:07:10Z</time>
      </trkpt>
      <trkpt lat="43.98301" lon="3.77558">
        <ele>766.70350485244</ele>
        <time>2017-03-20T16:07:15Z</time>
      </trkpt>
      <trkpt lat="43.98298" lon="3.7756">
        <ele>766.70350485244</ele>
        <time>2017-03-20T16:07:20Z</time>
      </trkpt>
      <trkpt lat="43.98294" lon="3.77561">
        <ele>766.17972590892</ele>
        <time>2017-03-20T16:07:25Z</time>
      </trkpt>
      <trkpt lat="43.98289" lon="3.77564">
        <ele>766.17972590892</ele>
        <time>2017-03-20T16:07:31Z</time>
      </trkpt>
      <trkpt lat="43.98279" lon="3.77574">
        <ele>765.64816206744</ele>
        <time>2017-03-20T16:07:45Z</time>
      </trkpt>
      <trkpt lat="43.9826" lon="3.77578">
        <ele>765.13327537875</ele>
        <time>2017-03-20T16:08:02Z</time>
      </trkpt>
      <trkpt lat="43.98259" lon="3.7758">
        <ele>765.13327537875</ele>
        <time>2017-03-20T16:08:03Z</time>
      </trkpt>
      <trkpt lat="43.98246" lon="3.77586">
        <ele>764.5855754591</ele>
        <time>2017-03-20T16:08:24Z</time>
      </trkpt>
      <trkpt lat="43.98245" lon="3.77587">
        <ele>764.5855754591</ele>
        <time>2017-03-20T16:08:25Z</time>
      </trkpt>
      <trkpt lat="43.98242" lon="3.77588">
        <ele>764.5855754591</ele>
        <time>2017-03-20T16:08:30Z</time>
      </trkpt>
      <trkpt lat="43.98169" lon="3.77647">
        <ele>762.50374009206</ele>
        <time>2017-03-20T16:10:04Z</time>
      </trkpt>
      <trkpt lat="43.98116" lon="3.77676">
        <ele>759.54739063411</ele>
        <time>2017-03-20T16:11:06Z</time>
      </trkpt>
      <trkpt lat="43.98111" lon="3.77679">
        <ele>759.54739063411</ele>
        <time>2017-03-20T16:11:06Z</time>
      </trkpt>
      <trkpt lat="43.98068" lon="3.77695">
        <ele>756.02749345002</ele>
        <time>2017-03-20T16:11:52Z</time>
      </trkpt>
      <trkpt lat="43.98062" lon="3.77699">
        <ele>756.02749345002</ele>
        <time>2017-03-20T16:11:52Z</time>
      </trkpt>
      <trkpt lat="43.98045" lon="3.77702">
        <ele>752.34902116429</ele>
        <time>2017-03-20T16:12:10Z</time>
      </trkpt>
      <trkpt lat="43.98045" lon="3.77702">
        <ele>752.34902116429</ele>
        <time>2017-03-20T16:12:15Z</time>
      </trkpt>
      <trkpt lat="43.9804" lon="3.77703">
        <ele>752.34902116429</ele>
        <time>2017-03-20T16:12:25Z</time>
      </trkpt>
      <trkpt lat="43.98037" lon="3.77702">
        <ele>752.34902116429</ele>
        <time>2017-03-20T16:12:30Z</time>
      </trkpt>
      <trkpt lat="43.98012" lon="3.77679">
        <ele>748.25352630875</ele>
        <time>2017-03-20T16:13:02Z</time>
      </trkpt>
      <trkpt lat="43.98004" lon="3.77669">
        <ele>744.29529239195</ele>
        <time>2017-03-20T16:13:09Z</time>
      </trkpt>
      <trkpt lat="43.97926" lon="3.77729">
        <ele>739.44546386773</ele>
        <time>2017-03-20T16:14:50Z</time>
      </trkpt>
      <trkpt lat="43.97909" lon="3.77725">
        <ele>733.92050519048</ele>
        <time>2017-03-20T16:15:36Z</time>
      </trkpt>
      <trkpt lat="43.97898" lon="3.77695">
        <ele>728.42718638642</ele>
        <time>2017-03-20T16:16:08Z</time>
      </trkpt>
      <trkpt lat="43.97893" lon="3.77686">
        <ele>728.42718638642</ele>
        <time>2017-03-20T16:16:08Z</time>
      </trkpt>
      <trkpt lat="43.97878" lon="3.77707">
        <ele>723.00049893493</ele>
        <time>2017-03-20T16:16:30Z</time>
      </trkpt>
      <trkpt lat="43.97877" lon="3.77714">
        <ele>723.00049893493</ele>
        <time>2017-03-20T16:16:35Z</time>
      </trkpt>
      <trkpt lat="43.97865" lon="3.77843">
        <ele>716.07292991681</ele>
        <time>2017-03-20T16:18:06Z</time>
      </trkpt>
      <trkpt lat="43.97867" lon="3.77843">
        <ele>716.07292991681</ele>
        <time>2017-03-20T16:18:10Z</time>
      </trkpt>
      <trkpt lat="43.97868" lon="3.77845">
        <ele>716.07292991681</ele>
        <time>2017-03-20T16:18:15Z</time>
      </trkpt>
      <trkpt lat="43.97866" lon="3.7785">
        <ele>716.07292991681</ele>
        <time>2017-03-20T16:18:20Z</time>
      </trkpt>
      <trkpt lat="43.97864" lon="3.77856">
        <ele>709.2657593238</ele>
        <time>2017-03-20T16:18:25Z</time>
      </trkpt>
      <trkpt lat="43.97859" lon="3.77865">
        <ele>709.2657593238</ele>
        <time>2017-03-20T16:18:30Z</time>
      </trkpt>
      <trkpt lat="43.97853" lon="3.77866">
        <ele>702.95660935</ele>
        <time>2017-03-20T16:18:35Z</time>
      </trkpt>
      <trkpt lat="43.97847" lon="3.77865">
        <ele>702.95660935</ele>
        <time>2017-03-20T16:18:40Z</time>
      </trkpt>
      <trkpt lat="43.97861" lon="3.77936">
        <ele>694.52509612183</ele>
        <time>2017-03-20T16:19:57Z</time>
      </trkpt>
      <trkpt lat="43.97849" lon="3.77967">
        <ele>686.33356799738</ele>
        <time>2017-03-20T16:20:22Z</time>
      </trkpt>
      <trkpt lat="43.97848" lon="3.77974">
        <ele>686.33356799738</ele>
        <time>2017-03-20T16:20:22Z</time>
      </trkpt>
      <trkpt lat="43.97838" lon="3.77981">
        <ele>678.56678917489</ele>
        <time>2017-03-20T16:20:35Z</time>
      </trkpt>
      <trkpt lat="43.97829" lon="3.7798">
        <ele>671.49538497517</ele>
        <time>2017-03-20T16:20:40Z</time>
      </trkpt>
      <trkpt lat="43.97812" lon="3.77977">
        <ele>664.93554339743</ele>
        <time>2017-03-20T16:20:52Z</time>
      </trkpt>
      <trkpt lat="43.97809" lon="3.77974">
        <ele>664.93554339743</ele>
        <time>2017-03-20T16:20:55Z</time>
      </trkpt>
      <trkpt lat="43.97799" lon="3.77964">
        <ele>658.80169945783</ele>
        <time>2017-03-20T16:21:05Z</time>
      </trkpt>
      <trkpt lat="43.97795" lon="3.77958">
        <ele>658.80169945783</ele>
        <time>2017-03-20T16:21:10Z</time>
      </trkpt>
      <trkpt lat="43.97784" lon="3.77937">
        <ele>652.73927159791</ele>
        <time>2017-03-20T16:21:25Z</time>
      </trkpt>
      <trkpt lat="43.97779" lon="3.7793">
        <ele>652.73927159791</ele>
        <time>2017-03-20T16:21:30Z</time>
      </trkpt>
      <trkpt lat="43.97771" lon="3.77918">
        <ele>647.11095970126</ele>
        <time>2017-03-20T16:21:40Z</time>
      </trkpt>
      <trkpt lat="43.97761" lon="3.77907">
        <ele>641.94867042816</ele>
        <time>2017-03-20T16:21:59Z</time>
      </trkpt>
      <trkpt lat="43.97699" lon="3.77848">
        <ele>636.44451968035</ele>
        <time>2017-03-20T16:24:42Z</time>
      </trkpt>
      <trkpt lat="43.97696" lon="3.77845">
        <ele>636.44451968035</ele>
        <time>2017-03-20T16:24:47Z</time>
      </trkpt>
      <trkpt lat="43.97695" lon="3.77844">
        <ele>636.44451968035</ele>
        <time>2017-03-20T16:24:58Z</time>
      </trkpt>
      <trkpt lat="43.97663" lon="3.7783">
        <ele>631.29175203877</ele>
        <time>2017-03-20T16:25:35Z</time>
      </trkpt>
      <trkpt lat="43.97655" lon="3.77828">
        <ele>631.29175203877</ele>
        <time>2017-03-20T16:25:35Z</time>
      </trkpt>
      <trkpt lat="43.97603" lon="3.77867">
        <ele>626.09381964714</ele>
        <time>2017-03-20T16:27:00Z</time>
      </trkpt>
      <trkpt lat="43.97602" lon="3.77868">
        <ele>626.09381964714</ele>
        <time>2017-03-20T16:27:01Z</time>
      </trkpt>
      <trkpt lat="43.97598" lon="3.77864">
        <ele>626.09381964714</ele>
        <time>2017-03-20T16:27:19Z</time>
      </trkpt>
      <trkpt lat="43.9759" lon="3.77863">
        <ele>621.1028375401</ele>
        <time>2017-03-20T16:27:19Z</time>
      </trkpt>
      <trkpt lat="43.97588" lon="3.77862">
        <ele>621.1028375401</ele>
        <time>2017-03-20T16:27:21Z</time>
      </trkpt>
      <trkpt lat="43.97546" lon="3.77839">
        <ele>615.70130090717</ele>
        <time>2017-03-20T16:28:12Z</time>
      </trkpt>
      <trkpt lat="43.97526" lon="3.77862">
        <ele>610.60055412636</ele>
        <time>2017-03-20T16:28:24Z</time>
      </trkpt>
      <trkpt lat="43.97521" lon="3.77874">
        <ele>606.02626644631</ele>
        <time>2017-03-20T16:28:31Z</time>
      </trkpt>
      <trkpt lat="43.97517" lon="3.77883">
        <ele>606.02626644631</ele>
        <time>2017-03-20T16:28:38Z</time>
      </trkpt>
      <trkpt lat="43.97517" lon="3.77885">
        <ele>601.66702129196</ele>
        <time>2017-03-20T16:28:40Z</time>
      </trkpt>
      <trkpt lat="43.97516" lon="3.77891">
        <ele>601.66702129196</ele>
        <time>2017-03-20T16:28:45Z</time>
      </trkpt>
      <trkpt lat="43.97516" lon="3.77897">
        <ele>601.66702129196</ele>
        <time>2017-03-20T16:28:50Z</time>
      </trkpt>
      <trkpt lat="43.97516" lon="3.77899">
        <ele>597.63696881553</ele>
        <time>2017-03-20T16:29:00Z</time>
      </trkpt>
    </trkseg>
  </trk>
</gpx>